<?xml version="1.0" encoding="UTF-8" standalone="no" ?>
<gpx xmlns="http://www.topografix.com/GPX/1/1" xmlns:xsi="http://www.w3.org/2001/XMLSchema-instance" xsi:schemaLocation="http://www.topografix.com/GPX/1/1 http://www.topografix.com/GPX/1/1/gpx.xsd" version="1.1" creator="VisuGPX - https://www.visugpx.com">
  <metadata>
    <name>2021 04 04 Randonnée Mandray.</name>
    <desc><![CDATA[Le Haut fer-le Chipal-le pré du bois-col des Chauffours- col de Mandray-chapelle de Monthegoutte.]]></desc>
  </metadata>
  <trk>
    <name><![CDATA[2021 04 04 Randonnée Mandray._1]]></name>
    <trkseg>
      <trkpt lat="48.22094" lon="6.99156">
        <ele>413</ele>
        <time>2021-04-04T09:06:22+02:00</time>
      </trkpt>
      <trkpt lat="48.22106" lon="6.99172">
        <ele>414</ele>
        <time>2021-04-04T09:08:27+02:00</time>
      </trkpt>
      <trkpt lat="48.22124" lon="6.99167">
        <ele>415</ele>
        <time>2021-04-04T09:08:47+02:00</time>
      </trkpt>
      <trkpt lat="48.22144" lon="6.99161">
        <ele>416</ele>
        <time>2021-04-04T09:09:04+02:00</time>
      </trkpt>
      <trkpt lat="48.22161" lon="6.99167">
        <ele>417</ele>
        <time>2021-04-04T09:09:21+02:00</time>
      </trkpt>
      <trkpt lat="48.22165" lon="6.99197">
        <ele>419</ele>
        <time>2021-04-04T09:09:42+02:00</time>
      </trkpt>
      <trkpt lat="48.22172" lon="6.99225">
        <ele>422</ele>
        <time>2021-04-04T09:10:01+02:00</time>
      </trkpt>
      <trkpt lat="48.22186" lon="6.99244">
        <ele>426</ele>
        <time>2021-04-04T09:10:21+02:00</time>
      </trkpt>
      <trkpt lat="48.22208" lon="6.99258">
        <ele>430</ele>
        <time>2021-04-04T09:10:57+02:00</time>
      </trkpt>
      <trkpt lat="48.22228" lon="6.99275">
        <ele>434</ele>
        <time>2021-04-04T09:11:23+02:00</time>
      </trkpt>
      <trkpt lat="48.22237" lon="6.99302">
        <ele>436</ele>
        <time>2021-04-04T09:11:42+02:00</time>
      </trkpt>
      <trkpt lat="48.22251" lon="6.99325">
        <ele>438</ele>
        <time>2021-04-04T09:12:02+02:00</time>
      </trkpt>
      <trkpt lat="48.22266" lon="6.99345">
        <ele>440</ele>
        <time>2021-04-04T09:12:21+02:00</time>
      </trkpt>
      <trkpt lat="48.22278" lon="6.99371">
        <ele>442</ele>
        <time>2021-04-04T09:12:43+02:00</time>
      </trkpt>
      <trkpt lat="48.22286" lon="6.99402">
        <ele>443</ele>
        <time>2021-04-04T09:13:06+02:00</time>
      </trkpt>
      <trkpt lat="48.22298" lon="6.99428">
        <ele>446</ele>
        <time>2021-04-04T09:13:29+02:00</time>
      </trkpt>
      <trkpt lat="48.2231" lon="6.99453">
        <ele>449</ele>
        <time>2021-04-04T09:13:59+02:00</time>
      </trkpt>
      <trkpt lat="48.22312" lon="6.9947">
        <ele>450</ele>
        <time>2021-04-04T09:15:45+02:00</time>
      </trkpt>
      <trkpt lat="48.22296" lon="6.99485">
        <ele>448</ele>
        <time>2021-04-04T09:16:12+02:00</time>
      </trkpt>
      <trkpt lat="48.22278" lon="6.995">
        <ele>446</ele>
        <time>2021-04-04T09:16:34+02:00</time>
      </trkpt>
      <trkpt lat="48.22262" lon="6.99518">
        <ele>444</ele>
        <time>2021-04-04T09:16:52+02:00</time>
      </trkpt>
      <trkpt lat="48.22256" lon="6.99533">
        <ele>444</ele>
        <time>2021-04-04T09:17:28+02:00</time>
      </trkpt>
      <trkpt lat="48.22276" lon="6.99543">
        <ele>448</ele>
        <time>2021-04-04T09:17:54+02:00</time>
      </trkpt>
      <trkpt lat="48.22292" lon="6.99563">
        <ele>451</ele>
        <time>2021-04-04T09:18:27+02:00</time>
      </trkpt>
      <trkpt lat="48.223" lon="6.99589">
        <ele>454</ele>
        <time>2021-04-04T09:18:49+02:00</time>
      </trkpt>
      <trkpt lat="48.22302" lon="6.99619">
        <ele>456</ele>
        <time>2021-04-04T09:19:11+02:00</time>
      </trkpt>
      <trkpt lat="48.22306" lon="6.99648">
        <ele>459</ele>
        <time>2021-04-04T09:19:34+02:00</time>
      </trkpt>
      <trkpt lat="48.22313" lon="6.99677">
        <ele>462</ele>
        <time>2021-04-04T09:19:53+02:00</time>
      </trkpt>
      <trkpt lat="48.22322" lon="6.99704">
        <ele>464</ele>
        <time>2021-04-04T09:20:12+02:00</time>
      </trkpt>
      <trkpt lat="48.22326" lon="6.99733">
        <ele>465</ele>
        <time>2021-04-04T09:20:39+02:00</time>
      </trkpt>
      <trkpt lat="48.22338" lon="6.99755">
        <ele>467</ele>
        <time>2021-04-04T09:20:57+02:00</time>
      </trkpt>
      <trkpt lat="48.22354" lon="6.99771">
        <ele>468</ele>
        <time>2021-04-04T09:21:15+02:00</time>
      </trkpt>
      <trkpt lat="48.22371" lon="6.99788">
        <ele>471</ele>
        <time>2021-04-04T09:21:32+02:00</time>
      </trkpt>
      <trkpt lat="48.22384" lon="6.99803">
        <ele>473</ele>
        <time>2021-04-04T09:22:23+02:00</time>
      </trkpt>
      <trkpt lat="48.224" lon="6.99817">
        <ele>475</ele>
        <time>2021-04-04T09:23:02+02:00</time>
      </trkpt>
      <trkpt lat="48.22414" lon="6.99836">
        <ele>478</ele>
        <time>2021-04-04T09:23:22+02:00</time>
      </trkpt>
      <trkpt lat="48.22428" lon="6.99856">
        <ele>481</ele>
        <time>2021-04-04T09:23:46+02:00</time>
      </trkpt>
      <trkpt lat="48.22444" lon="6.99875">
        <ele>485</ele>
        <time>2021-04-04T09:24:26+02:00</time>
      </trkpt>
      <trkpt lat="48.22465" lon="6.99891">
        <ele>489</ele>
        <time>2021-04-04T09:24:53+02:00</time>
      </trkpt>
      <trkpt lat="48.22487" lon="6.99895">
        <ele>494</ele>
        <time>2021-04-04T09:25:18+02:00</time>
      </trkpt>
      <trkpt lat="48.22509" lon="6.99895">
        <ele>498</ele>
        <time>2021-04-04T09:25:44+02:00</time>
      </trkpt>
      <trkpt lat="48.22532" lon="6.99894">
        <ele>500</ele>
        <time>2021-04-04T09:26:10+02:00</time>
      </trkpt>
      <trkpt lat="48.22552" lon="6.99893">
        <ele>503</ele>
        <time>2021-04-04T09:26:38+02:00</time>
      </trkpt>
      <trkpt lat="48.22573" lon="6.99896">
        <ele>505</ele>
        <time>2021-04-04T09:26:58+02:00</time>
      </trkpt>
      <trkpt lat="48.22591" lon="6.99904">
        <ele>506</ele>
        <time>2021-04-04T09:27:15+02:00</time>
      </trkpt>
      <trkpt lat="48.22606" lon="6.99922">
        <ele>506</ele>
        <time>2021-04-04T09:27:32+02:00</time>
      </trkpt>
      <trkpt lat="48.22619" lon="6.99942">
        <ele>506</ele>
        <time>2021-04-04T09:27:49+02:00</time>
      </trkpt>
      <trkpt lat="48.22626" lon="6.99968">
        <ele>507</ele>
        <time>2021-04-04T09:28:05+02:00</time>
      </trkpt>
      <trkpt lat="48.22629" lon="6.99995">
        <ele>507</ele>
        <time>2021-04-04T09:28:21+02:00</time>
      </trkpt>
      <trkpt lat="48.22633" lon="7.00022">
        <ele>508</ele>
        <time>2021-04-04T09:28:37+02:00</time>
      </trkpt>
      <trkpt lat="48.22639" lon="7.00049">
        <ele>509</ele>
        <time>2021-04-04T09:28:53+02:00</time>
      </trkpt>
      <trkpt lat="48.22647" lon="7.00075">
        <ele>511</ele>
        <time>2021-04-04T09:29:10+02:00</time>
      </trkpt>
      <trkpt lat="48.22658" lon="7.00102">
        <ele>514</ele>
        <time>2021-04-04T09:29:31+02:00</time>
      </trkpt>
      <trkpt lat="48.22662" lon="7.00135">
        <ele>517</ele>
        <time>2021-04-04T09:29:58+02:00</time>
      </trkpt>
      <trkpt lat="48.22661" lon="7.00176">
        <ele>520</ele>
        <time>2021-04-04T09:30:20+02:00</time>
      </trkpt>
      <trkpt lat="48.2267" lon="7.00195">
        <ele>523</ele>
        <time>2021-04-04T09:31:00+02:00</time>
      </trkpt>
      <trkpt lat="48.22684" lon="7.00222">
        <ele>526</ele>
        <time>2021-04-04T09:31:28+02:00</time>
      </trkpt>
      <trkpt lat="48.227" lon="7.00244">
        <ele>528</ele>
        <time>2021-04-04T09:32:14+02:00</time>
      </trkpt>
      <trkpt lat="48.22714" lon="7.00273">
        <ele>530</ele>
        <time>2021-04-04T09:32:54+02:00</time>
      </trkpt>
      <trkpt lat="48.2271" lon="7.00315">
        <ele>533</ele>
        <time>2021-04-04T09:33:25+02:00</time>
      </trkpt>
      <trkpt lat="48.22706" lon="7.00358">
        <ele>537</ele>
        <time>2021-04-04T09:33:53+02:00</time>
      </trkpt>
      <trkpt lat="48.22707" lon="7.00396">
        <ele>540</ele>
        <time>2021-04-04T09:34:16+02:00</time>
      </trkpt>
      <trkpt lat="48.22706" lon="7.00455">
        <ele>543</ele>
        <time>2021-04-04T09:34:51+02:00</time>
      </trkpt>
      <trkpt lat="48.22709" lon="7.00482">
        <ele>544</ele>
        <time>2021-04-04T09:37:51+02:00</time>
      </trkpt>
      <trkpt lat="48.22711" lon="7.00517">
        <ele>545</ele>
        <time>2021-04-04T09:38:16+02:00</time>
      </trkpt>
      <trkpt lat="48.2271" lon="7.00552">
        <ele>545</ele>
        <time>2021-04-04T09:38:41+02:00</time>
      </trkpt>
      <trkpt lat="48.22706" lon="7.00582">
        <ele>545</ele>
        <time>2021-04-04T09:39:02+02:00</time>
      </trkpt>
      <trkpt lat="48.22699" lon="7.00614">
        <ele>545</ele>
        <time>2021-04-04T09:39:21+02:00</time>
      </trkpt>
      <trkpt lat="48.22693" lon="7.00651">
        <ele>545</ele>
        <time>2021-04-04T09:39:40+02:00</time>
      </trkpt>
      <trkpt lat="48.22687" lon="7.00682">
        <ele>546</ele>
        <time>2021-04-04T09:39:59+02:00</time>
      </trkpt>
      <trkpt lat="48.22688" lon="7.00723">
        <ele>545</ele>
        <time>2021-04-04T09:40:16+02:00</time>
      </trkpt>
      <trkpt lat="48.22686" lon="7.00757">
        <ele>546</ele>
        <time>2021-04-04T09:40:34+02:00</time>
      </trkpt>
      <trkpt lat="48.22688" lon="7.00789">
        <ele>546</ele>
        <time>2021-04-04T09:40:52+02:00</time>
      </trkpt>
      <trkpt lat="48.22686" lon="7.00827">
        <ele>547</ele>
        <time>2021-04-04T09:41:16+02:00</time>
      </trkpt>
      <trkpt lat="48.22682" lon="7.00855">
        <ele>549</ele>
        <time>2021-04-04T09:41:34+02:00</time>
      </trkpt>
      <trkpt lat="48.22673" lon="7.00884">
        <ele>552</ele>
        <time>2021-04-04T09:41:52+02:00</time>
      </trkpt>
      <trkpt lat="48.22665" lon="7.00912">
        <ele>555</ele>
        <time>2021-04-04T09:42:10+02:00</time>
      </trkpt>
      <trkpt lat="48.22661" lon="7.00942">
        <ele>557</ele>
        <time>2021-04-04T09:42:34+02:00</time>
      </trkpt>
      <trkpt lat="48.22657" lon="7.00983">
        <ele>561</ele>
        <time>2021-04-04T09:43:04+02:00</time>
      </trkpt>
      <trkpt lat="48.22651" lon="7.01026">
        <ele>565</ele>
        <time>2021-04-04T09:43:37+02:00</time>
      </trkpt>
      <trkpt lat="48.22639" lon="7.01057">
        <ele>569</ele>
        <time>2021-04-04T09:44:06+02:00</time>
      </trkpt>
      <trkpt lat="48.22636" lon="7.01083">
        <ele>572</ele>
        <time>2021-04-04T09:44:41+02:00</time>
      </trkpt>
      <trkpt lat="48.22648" lon="7.01112">
        <ele>576</ele>
        <time>2021-04-04T09:45:15+02:00</time>
      </trkpt>
      <trkpt lat="48.22655" lon="7.01134">
        <ele>578</ele>
        <time>2021-04-04T09:45:49+02:00</time>
      </trkpt>
      <trkpt lat="48.22673" lon="7.01157">
        <ele>578</ele>
        <time>2021-04-04T09:46:17+02:00</time>
      </trkpt>
      <trkpt lat="48.22689" lon="7.01194">
        <ele>579</ele>
        <time>2021-04-04T09:46:51+02:00</time>
      </trkpt>
      <trkpt lat="48.22694" lon="7.01247">
        <ele>582</ele>
        <time>2021-04-04T09:47:18+02:00</time>
      </trkpt>
      <trkpt lat="48.22689" lon="7.01298">
        <ele>587</ele>
        <time>2021-04-04T09:47:51+02:00</time>
      </trkpt>
      <trkpt lat="48.22689" lon="7.01344">
        <ele>589</ele>
        <time>2021-04-04T09:48:29+02:00</time>
      </trkpt>
      <trkpt lat="48.22691" lon="7.01383">
        <ele>590</ele>
        <time>2021-04-04T09:49:07+02:00</time>
      </trkpt>
      <trkpt lat="48.22691" lon="7.0144">
        <ele>591</ele>
        <time>2021-04-04T09:49:38+02:00</time>
      </trkpt>
      <trkpt lat="48.22693" lon="7.01483">
        <ele>590</ele>
        <time>2021-04-04T09:50:00+02:00</time>
      </trkpt>
      <trkpt lat="48.22682" lon="7.01516">
        <ele>593</ele>
        <time>2021-04-04T09:51:48+02:00</time>
      </trkpt>
      <trkpt lat="48.22688" lon="7.01533">
        <ele>593</ele>
        <time>2021-04-04T09:53:13+02:00</time>
      </trkpt>
      <trkpt lat="48.22683" lon="7.01567">
        <ele>595</ele>
        <time>2021-04-04T09:53:38+02:00</time>
      </trkpt>
      <trkpt lat="48.2268" lon="7.0161">
        <ele>597</ele>
        <time>2021-04-04T09:54:08+02:00</time>
      </trkpt>
      <trkpt lat="48.22675" lon="7.0166">
        <ele>600</ele>
        <time>2021-04-04T09:54:46+02:00</time>
      </trkpt>
      <trkpt lat="48.22667" lon="7.0171">
        <ele>605</ele>
        <time>2021-04-04T09:55:17+02:00</time>
      </trkpt>
      <trkpt lat="48.22651" lon="7.01741">
        <ele>603</ele>
        <time>2021-04-04T09:55:44+02:00</time>
      </trkpt>
      <trkpt lat="48.2264" lon="7.01779">
        <ele>602</ele>
        <time>2021-04-04T09:56:05+02:00</time>
      </trkpt>
      <trkpt lat="48.22637" lon="7.01818">
        <ele>603</ele>
        <time>2021-04-04T09:56:26+02:00</time>
      </trkpt>
      <trkpt lat="48.22632" lon="7.01855">
        <ele>603</ele>
        <time>2021-04-04T09:56:44+02:00</time>
      </trkpt>
      <trkpt lat="48.22632" lon="7.01903">
        <ele>603</ele>
        <time>2021-04-04T09:57:03+02:00</time>
      </trkpt>
      <trkpt lat="48.22629" lon="7.0194">
        <ele>601</ele>
        <time>2021-04-04T09:57:22+02:00</time>
      </trkpt>
      <trkpt lat="48.22622" lon="7.01971">
        <ele>599</ele>
        <time>2021-04-04T09:57:38+02:00</time>
      </trkpt>
      <trkpt lat="48.22611" lon="7.02001">
        <ele>598</ele>
        <time>2021-04-04T09:57:53+02:00</time>
      </trkpt>
      <trkpt lat="48.226" lon="7.0203">
        <ele>599</ele>
        <time>2021-04-04T09:58:09+02:00</time>
      </trkpt>
      <trkpt lat="48.22593" lon="7.02063">
        <ele>601</ele>
        <time>2021-04-04T09:58:31+02:00</time>
      </trkpt>
      <trkpt lat="48.2259" lon="7.02089">
        <ele>602</ele>
        <time>2021-04-04T09:58:50+02:00</time>
      </trkpt>
      <trkpt lat="48.22583" lon="7.02122">
        <ele>603</ele>
        <time>2021-04-04T09:59:14+02:00</time>
      </trkpt>
      <trkpt lat="48.22575" lon="7.02148">
        <ele>603</ele>
        <time>2021-04-04T09:59:44+02:00</time>
      </trkpt>
      <trkpt lat="48.22569" lon="7.0218">
        <ele>604</ele>
        <time>2021-04-04T10:00:07+02:00</time>
      </trkpt>
      <trkpt lat="48.22563" lon="7.02212">
        <ele>607</ele>
        <time>2021-04-04T10:00:28+02:00</time>
      </trkpt>
      <trkpt lat="48.22557" lon="7.0225">
        <ele>609</ele>
        <time>2021-04-04T10:00:49+02:00</time>
      </trkpt>
      <trkpt lat="48.22552" lon="7.02277">
        <ele>612</ele>
        <time>2021-04-04T10:01:12+02:00</time>
      </trkpt>
      <trkpt lat="48.22539" lon="7.02307">
        <ele>615</ele>
        <time>2021-04-04T10:01:51+02:00</time>
      </trkpt>
      <trkpt lat="48.22521" lon="7.02326">
        <ele>617</ele>
        <time>2021-04-04T10:02:12+02:00</time>
      </trkpt>
      <trkpt lat="48.22505" lon="7.02343">
        <ele>619</ele>
        <time>2021-04-04T10:02:32+02:00</time>
      </trkpt>
      <trkpt lat="48.22491" lon="7.02364">
        <ele>620</ele>
        <time>2021-04-04T10:02:53+02:00</time>
      </trkpt>
      <trkpt lat="48.22481" lon="7.02391">
        <ele>621</ele>
        <time>2021-04-04T10:03:17+02:00</time>
      </trkpt>
      <trkpt lat="48.22468" lon="7.02414">
        <ele>622</ele>
        <time>2021-04-04T10:03:45+02:00</time>
      </trkpt>
      <trkpt lat="48.22454" lon="7.02435">
        <ele>625</ele>
        <time>2021-04-04T10:04:06+02:00</time>
      </trkpt>
      <trkpt lat="48.22442" lon="7.02457">
        <ele>627</ele>
        <time>2021-04-04T10:04:26+02:00</time>
      </trkpt>
      <trkpt lat="48.22428" lon="7.02478">
        <ele>629</ele>
        <time>2021-04-04T10:04:44+02:00</time>
      </trkpt>
      <trkpt lat="48.22413" lon="7.02496">
        <ele>631</ele>
        <time>2021-04-04T10:05:02+02:00</time>
      </trkpt>
      <trkpt lat="48.22399" lon="7.02515">
        <ele>632</ele>
        <time>2021-04-04T10:05:21+02:00</time>
      </trkpt>
      <trkpt lat="48.22384" lon="7.02537">
        <ele>634</ele>
        <time>2021-04-04T10:05:44+02:00</time>
      </trkpt>
      <trkpt lat="48.22381" lon="7.02569">
        <ele>639</ele>
        <time>2021-04-04T10:06:13+02:00</time>
      </trkpt>
      <trkpt lat="48.22363" lon="7.02604">
        <ele>643</ele>
        <time>2021-04-04T10:06:44+02:00</time>
      </trkpt>
      <trkpt lat="48.22349" lon="7.02637">
        <ele>645</ele>
        <time>2021-04-04T10:07:11+02:00</time>
      </trkpt>
      <trkpt lat="48.22333" lon="7.02688">
        <ele>651</ele>
        <time>2021-04-04T10:07:46+02:00</time>
      </trkpt>
      <trkpt lat="48.22301" lon="7.02731">
        <ele>647</ele>
        <time>2021-04-04T10:08:18+02:00</time>
      </trkpt>
      <trkpt lat="48.22283" lon="7.02773">
        <ele>649</ele>
        <time>2021-04-04T10:08:52+02:00</time>
      </trkpt>
      <trkpt lat="48.22276" lon="7.02818">
        <ele>654</ele>
        <time>2021-04-04T10:09:19+02:00</time>
      </trkpt>
      <trkpt lat="48.22264" lon="7.0286">
        <ele>656</ele>
        <time>2021-04-04T10:09:43+02:00</time>
      </trkpt>
      <trkpt lat="48.2224" lon="7.02892">
        <ele>653</ele>
        <time>2021-04-04T10:10:02+02:00</time>
      </trkpt>
      <trkpt lat="48.22226" lon="7.02923">
        <ele>653</ele>
        <time>2021-04-04T10:10:21+02:00</time>
      </trkpt>
      <trkpt lat="48.22208" lon="7.02951">
        <ele>651</ele>
        <time>2021-04-04T10:10:40+02:00</time>
      </trkpt>
      <trkpt lat="48.22196" lon="7.02977">
        <ele>651</ele>
        <time>2021-04-04T10:10:58+02:00</time>
      </trkpt>
      <trkpt lat="48.22177" lon="7.03">
        <ele>648</ele>
        <time>2021-04-04T10:11:19+02:00</time>
      </trkpt>
      <trkpt lat="48.22159" lon="7.03023">
        <ele>647</ele>
        <time>2021-04-04T10:11:41+02:00</time>
      </trkpt>
      <trkpt lat="48.22134" lon="7.0304">
        <ele>644</ele>
        <time>2021-04-04T10:12:09+02:00</time>
      </trkpt>
      <trkpt lat="48.22104" lon="7.03039">
        <ele>636</ele>
        <time>2021-04-04T10:12:30+02:00</time>
      </trkpt>
      <trkpt lat="48.22086" lon="7.03054">
        <ele>634</ele>
        <time>2021-04-04T10:12:51+02:00</time>
      </trkpt>
      <trkpt lat="48.22069" lon="7.03072">
        <ele>633</ele>
        <time>2021-04-04T10:13:12+02:00</time>
      </trkpt>
      <trkpt lat="48.22051" lon="7.03093">
        <ele>632</ele>
        <time>2021-04-04T10:13:32+02:00</time>
      </trkpt>
      <trkpt lat="48.22036" lon="7.03116">
        <ele>631</ele>
        <time>2021-04-04T10:13:53+02:00</time>
      </trkpt>
      <trkpt lat="48.22021" lon="7.03142">
        <ele>630</ele>
        <time>2021-04-04T10:14:12+02:00</time>
      </trkpt>
      <trkpt lat="48.22004" lon="7.03166">
        <ele>626</ele>
        <time>2021-04-04T10:14:29+02:00</time>
      </trkpt>
      <trkpt lat="48.2199" lon="7.03198">
        <ele>627</ele>
        <time>2021-04-04T10:14:51+02:00</time>
      </trkpt>
      <trkpt lat="48.21976" lon="7.03226">
        <ele>629</ele>
        <time>2021-04-04T10:15:12+02:00</time>
      </trkpt>
      <trkpt lat="48.21961" lon="7.03255">
        <ele>630</ele>
        <time>2021-04-04T10:15:31+02:00</time>
      </trkpt>
      <trkpt lat="48.21944" lon="7.03276">
        <ele>631</ele>
        <time>2021-04-04T10:15:55+02:00</time>
      </trkpt>
      <trkpt lat="48.21926" lon="7.03294">
        <ele>632</ele>
        <time>2021-04-04T10:16:22+02:00</time>
      </trkpt>
      <trkpt lat="48.21905" lon="7.03304">
        <ele>632</ele>
        <time>2021-04-04T10:16:44+02:00</time>
      </trkpt>
      <trkpt lat="48.21883" lon="7.0331">
        <ele>632</ele>
        <time>2021-04-04T10:17:19+02:00</time>
      </trkpt>
      <trkpt lat="48.21863" lon="7.03319">
        <ele>632</ele>
        <time>2021-04-04T10:17:38+02:00</time>
      </trkpt>
      <trkpt lat="48.21841" lon="7.03326">
        <ele>631</ele>
        <time>2021-04-04T10:17:59+02:00</time>
      </trkpt>
      <trkpt lat="48.21819" lon="7.03335">
        <ele>632</ele>
        <time>2021-04-04T10:18:20+02:00</time>
      </trkpt>
      <trkpt lat="48.21795" lon="7.03345">
        <ele>634</ele>
        <time>2021-04-04T10:18:39+02:00</time>
      </trkpt>
      <trkpt lat="48.21774" lon="7.03358">
        <ele>637</ele>
        <time>2021-04-04T10:19:02+02:00</time>
      </trkpt>
      <trkpt lat="48.21751" lon="7.03376">
        <ele>640</ele>
        <time>2021-04-04T10:19:31+02:00</time>
      </trkpt>
      <trkpt lat="48.21726" lon="7.03389">
        <ele>642</ele>
        <time>2021-04-04T10:19:59+02:00</time>
      </trkpt>
      <trkpt lat="48.21699" lon="7.03401">
        <ele>643</ele>
        <time>2021-04-04T10:20:22+02:00</time>
      </trkpt>
      <trkpt lat="48.21673" lon="7.03409">
        <ele>645</ele>
        <time>2021-04-04T10:20:52+02:00</time>
      </trkpt>
      <trkpt lat="48.21635" lon="7.03414">
        <ele>644</ele>
        <time>2021-04-04T10:21:11+02:00</time>
      </trkpt>
      <trkpt lat="48.2161" lon="7.03418">
        <ele>644</ele>
        <time>2021-04-04T10:21:31+02:00</time>
      </trkpt>
      <trkpt lat="48.21587" lon="7.03422">
        <ele>644</ele>
        <time>2021-04-04T10:21:59+02:00</time>
      </trkpt>
      <trkpt lat="48.21549" lon="7.03418">
        <ele>648</ele>
        <time>2021-04-04T10:22:27+02:00</time>
      </trkpt>
      <trkpt lat="48.21513" lon="7.03404">
        <ele>650</ele>
        <time>2021-04-04T10:23:00+02:00</time>
      </trkpt>
      <trkpt lat="48.21485" lon="7.03374">
        <ele>647</ele>
        <time>2021-04-04T10:23:25+02:00</time>
      </trkpt>
      <trkpt lat="48.21461" lon="7.03356">
        <ele>645</ele>
        <time>2021-04-04T10:23:45+02:00</time>
      </trkpt>
      <trkpt lat="48.21438" lon="7.03338">
        <ele>644</ele>
        <time>2021-04-04T10:24:08+02:00</time>
      </trkpt>
      <trkpt lat="48.21417" lon="7.03327">
        <ele>644</ele>
        <time>2021-04-04T10:24:35+02:00</time>
      </trkpt>
      <trkpt lat="48.21399" lon="7.03314">
        <ele>643</ele>
        <time>2021-04-04T10:25:07+02:00</time>
      </trkpt>
      <trkpt lat="48.21379" lon="7.03303">
        <ele>643</ele>
        <time>2021-04-04T10:25:26+02:00</time>
      </trkpt>
      <trkpt lat="48.21359" lon="7.03289">
        <ele>643</ele>
        <time>2021-04-04T10:25:43+02:00</time>
      </trkpt>
      <trkpt lat="48.21341" lon="7.03276">
        <ele>645</ele>
        <time>2021-04-04T10:26:00+02:00</time>
      </trkpt>
      <trkpt lat="48.21325" lon="7.0326">
        <ele>645</ele>
        <time>2021-04-04T10:26:29+02:00</time>
      </trkpt>
      <trkpt lat="48.21307" lon="7.03239">
        <ele>643</ele>
        <time>2021-04-04T10:26:48+02:00</time>
      </trkpt>
      <trkpt lat="48.21284" lon="7.03239">
        <ele>643</ele>
        <time>2021-04-04T10:27:13+02:00</time>
      </trkpt>
      <trkpt lat="48.21269" lon="7.03237">
        <ele>643</ele>
        <time>2021-04-04T10:27:37+02:00</time>
      </trkpt>
      <trkpt lat="48.21244" lon="7.03233">
        <ele>643</ele>
        <time>2021-04-04T10:28:07+02:00</time>
      </trkpt>
      <trkpt lat="48.21216" lon="7.03228">
        <ele>644</ele>
        <time>2021-04-04T10:28:41+02:00</time>
      </trkpt>
      <trkpt lat="48.21191" lon="7.03213">
        <ele>644</ele>
        <time>2021-04-04T10:29:20+02:00</time>
      </trkpt>
      <trkpt lat="48.21183" lon="7.03207">
        <ele>644</ele>
        <time>2021-04-04T10:30:29+02:00</time>
      </trkpt>
      <trkpt lat="48.21148" lon="7.03205">
        <ele>647</ele>
        <time>2021-04-04T10:31:06+02:00</time>
      </trkpt>
      <trkpt lat="48.21125" lon="7.03174">
        <ele>648</ele>
        <time>2021-04-04T10:31:36+02:00</time>
      </trkpt>
      <trkpt lat="48.21112" lon="7.03115">
        <ele>648</ele>
        <time>2021-04-04T10:32:11+02:00</time>
      </trkpt>
      <trkpt lat="48.21111" lon="7.03056">
        <ele>647</ele>
        <time>2021-04-04T10:32:41+02:00</time>
      </trkpt>
      <trkpt lat="48.21127" lon="7.03023">
        <ele>641</ele>
        <time>2021-04-04T10:33:06+02:00</time>
      </trkpt>
      <trkpt lat="48.21136" lon="7.02987">
        <ele>638</ele>
        <time>2021-04-04T10:33:26+02:00</time>
      </trkpt>
      <trkpt lat="48.21142" lon="7.0293">
        <ele>637</ele>
        <time>2021-04-04T10:33:54+02:00</time>
      </trkpt>
      <trkpt lat="48.21135" lon="7.02904">
        <ele>639</ele>
        <time>2021-04-04T10:34:27+02:00</time>
      </trkpt>
      <trkpt lat="48.21123" lon="7.02871">
        <ele>640</ele>
        <time>2021-04-04T10:34:53+02:00</time>
      </trkpt>
      <trkpt lat="48.21102" lon="7.02842">
        <ele>642</ele>
        <time>2021-04-04T10:35:17+02:00</time>
      </trkpt>
      <trkpt lat="48.21075" lon="7.02832">
        <ele>645</ele>
        <time>2021-04-04T10:35:38+02:00</time>
      </trkpt>
      <trkpt lat="48.21053" lon="7.02832">
        <ele>644</ele>
        <time>2021-04-04T10:36:01+02:00</time>
      </trkpt>
      <trkpt lat="48.21021" lon="7.02834">
        <ele>643</ele>
        <time>2021-04-04T10:36:29+02:00</time>
      </trkpt>
      <trkpt lat="48.20993" lon="7.02849">
        <ele>643</ele>
        <time>2021-04-04T10:36:49+02:00</time>
      </trkpt>
      <trkpt lat="48.20976" lon="7.02873">
        <ele>644</ele>
        <time>2021-04-04T10:37:12+02:00</time>
      </trkpt>
      <trkpt lat="48.20957" lon="7.02899">
        <ele>645</ele>
        <time>2021-04-04T10:37:38+02:00</time>
      </trkpt>
      <trkpt lat="48.20929" lon="7.02926">
        <ele>646</ele>
        <time>2021-04-04T10:38:05+02:00</time>
      </trkpt>
      <trkpt lat="48.20903" lon="7.02944">
        <ele>646</ele>
        <time>2021-04-04T10:38:29+02:00</time>
      </trkpt>
      <trkpt lat="48.20874" lon="7.02956">
        <ele>644</ele>
        <time>2021-04-04T10:39:01+02:00</time>
      </trkpt>
      <trkpt lat="48.20833" lon="7.02968">
        <ele>642</ele>
        <time>2021-04-04T10:39:36+02:00</time>
      </trkpt>
      <trkpt lat="48.20796" lon="7.0297">
        <ele>636</ele>
        <time>2021-04-04T10:40:07+02:00</time>
      </trkpt>
      <trkpt lat="48.20767" lon="7.02983">
        <ele>634</ele>
        <time>2021-04-04T10:40:28+02:00</time>
      </trkpt>
      <trkpt lat="48.20744" lon="7.02999">
        <ele>633</ele>
        <time>2021-04-04T10:40:45+02:00</time>
      </trkpt>
      <trkpt lat="48.2072" lon="7.03022">
        <ele>633</ele>
        <time>2021-04-04T10:41:03+02:00</time>
      </trkpt>
      <trkpt lat="48.20704" lon="7.03042">
        <ele>633</ele>
        <time>2021-04-04T10:41:21+02:00</time>
      </trkpt>
      <trkpt lat="48.20687" lon="7.03061">
        <ele>633</ele>
        <time>2021-04-04T10:41:41+02:00</time>
      </trkpt>
      <trkpt lat="48.2067" lon="7.03095">
        <ele>635</ele>
        <time>2021-04-04T10:41:57+02:00</time>
      </trkpt>
      <trkpt lat="48.20657" lon="7.03122">
        <ele>635</ele>
        <time>2021-04-04T10:42:15+02:00</time>
      </trkpt>
      <trkpt lat="48.20648" lon="7.03153">
        <ele>636</ele>
        <time>2021-04-04T10:42:43+02:00</time>
      </trkpt>
      <trkpt lat="48.2064" lon="7.03181">
        <ele>637</ele>
        <time>2021-04-04T10:43:05+02:00</time>
      </trkpt>
      <trkpt lat="48.20625" lon="7.03211">
        <ele>636</ele>
        <time>2021-04-04T10:43:36+02:00</time>
      </trkpt>
      <trkpt lat="48.20612" lon="7.03225">
        <ele>634</ele>
        <time>2021-04-04T10:59:31+02:00</time>
      </trkpt>
      <trkpt lat="48.2062" lon="7.03255">
        <ele>638</ele>
        <time>2021-04-04T11:00:24+02:00</time>
      </trkpt>
      <trkpt lat="48.20622" lon="7.0329">
        <ele>639</ele>
        <time>2021-04-04T11:00:48+02:00</time>
      </trkpt>
      <trkpt lat="48.20618" lon="7.03328">
        <ele>640</ele>
        <time>2021-04-04T11:01:11+02:00</time>
      </trkpt>
      <trkpt lat="48.20617" lon="7.03361">
        <ele>638</ele>
        <time>2021-04-04T11:01:29+02:00</time>
      </trkpt>
      <trkpt lat="48.20616" lon="7.03393">
        <ele>636</ele>
        <time>2021-04-04T11:01:47+02:00</time>
      </trkpt>
      <trkpt lat="48.20618" lon="7.03421">
        <ele>635</ele>
        <time>2021-04-04T11:02:04+02:00</time>
      </trkpt>
      <trkpt lat="48.20616" lon="7.03454">
        <ele>631</ele>
        <time>2021-04-04T11:02:21+02:00</time>
      </trkpt>
      <trkpt lat="48.20595" lon="7.03465">
        <ele>626</ele>
        <time>2021-04-04T11:02:37+02:00</time>
      </trkpt>
      <trkpt lat="48.20575" lon="7.03472">
        <ele>623</ele>
        <time>2021-04-04T11:02:58+02:00</time>
      </trkpt>
      <trkpt lat="48.20558" lon="7.03483">
        <ele>622</ele>
        <time>2021-04-04T11:03:18+02:00</time>
      </trkpt>
      <trkpt lat="48.20542" lon="7.035">
        <ele>620</ele>
        <time>2021-04-04T11:03:36+02:00</time>
      </trkpt>
      <trkpt lat="48.20526" lon="7.03522">
        <ele>617</ele>
        <time>2021-04-04T11:03:57+02:00</time>
      </trkpt>
      <trkpt lat="48.20512" lon="7.03552">
        <ele>614</ele>
        <time>2021-04-04T11:04:19+02:00</time>
      </trkpt>
      <trkpt lat="48.20497" lon="7.03582">
        <ele>611</ele>
        <time>2021-04-04T11:04:39+02:00</time>
      </trkpt>
      <trkpt lat="48.2048" lon="7.03615">
        <ele>607</ele>
        <time>2021-04-04T11:05:04+02:00</time>
      </trkpt>
      <trkpt lat="48.20464" lon="7.03631">
        <ele>605</ele>
        <time>2021-04-04T11:05:27+02:00</time>
      </trkpt>
      <trkpt lat="48.20442" lon="7.03641">
        <ele>605</ele>
        <time>2021-04-04T11:05:51+02:00</time>
      </trkpt>
      <trkpt lat="48.20418" lon="7.0364">
        <ele>606</ele>
        <time>2021-04-04T11:06:14+02:00</time>
      </trkpt>
      <trkpt lat="48.20393" lon="7.03641">
        <ele>602</ele>
        <time>2021-04-04T11:06:36+02:00</time>
      </trkpt>
      <trkpt lat="48.20364" lon="7.03636">
        <ele>597</ele>
        <time>2021-04-04T11:06:57+02:00</time>
      </trkpt>
      <trkpt lat="48.2034" lon="7.0363">
        <ele>594</ele>
        <time>2021-04-04T11:07:15+02:00</time>
      </trkpt>
      <trkpt lat="48.20329" lon="7.0365">
        <ele>591</ele>
        <time>2021-04-04T11:07:30+02:00</time>
      </trkpt>
      <trkpt lat="48.20329" lon="7.0368">
        <ele>588</ele>
        <time>2021-04-04T11:07:46+02:00</time>
      </trkpt>
      <trkpt lat="48.20328" lon="7.03712">
        <ele>585</ele>
        <time>2021-04-04T11:08:02+02:00</time>
      </trkpt>
      <trkpt lat="48.20323" lon="7.03742">
        <ele>582</ele>
        <time>2021-04-04T11:08:18+02:00</time>
      </trkpt>
      <trkpt lat="48.20313" lon="7.0377">
        <ele>580</ele>
        <time>2021-04-04T11:08:34+02:00</time>
      </trkpt>
      <trkpt lat="48.20302" lon="7.03796">
        <ele>578</ele>
        <time>2021-04-04T11:08:50+02:00</time>
      </trkpt>
      <trkpt lat="48.20286" lon="7.03817">
        <ele>577</ele>
        <time>2021-04-04T11:09:12+02:00</time>
      </trkpt>
      <trkpt lat="48.20278" lon="7.03843">
        <ele>576</ele>
        <time>2021-04-04T11:09:44+02:00</time>
      </trkpt>
      <trkpt lat="48.20273" lon="7.03873">
        <ele>576</ele>
        <time>2021-04-04T11:10:03+02:00</time>
      </trkpt>
      <trkpt lat="48.20273" lon="7.03903">
        <ele>575</ele>
        <time>2021-04-04T11:10:20+02:00</time>
      </trkpt>
      <trkpt lat="48.20272" lon="7.03932">
        <ele>575</ele>
        <time>2021-04-04T11:10:36+02:00</time>
      </trkpt>
      <trkpt lat="48.20264" lon="7.03961">
        <ele>575</ele>
        <time>2021-04-04T11:10:55+02:00</time>
      </trkpt>
      <trkpt lat="48.20251" lon="7.03987">
        <ele>576</ele>
        <time>2021-04-04T11:11:10+02:00</time>
      </trkpt>
      <trkpt lat="48.20238" lon="7.04018">
        <ele>577</ele>
        <time>2021-04-04T11:11:31+02:00</time>
      </trkpt>
      <trkpt lat="48.2023" lon="7.04045">
        <ele>578</ele>
        <time>2021-04-04T11:11:50+02:00</time>
      </trkpt>
      <trkpt lat="48.20228" lon="7.04081">
        <ele>578</ele>
        <time>2021-04-04T11:12:14+02:00</time>
      </trkpt>
      <trkpt lat="48.20225" lon="7.04112">
        <ele>579</ele>
        <time>2021-04-04T11:12:33+02:00</time>
      </trkpt>
      <trkpt lat="48.20222" lon="7.04142">
        <ele>579</ele>
        <time>2021-04-04T11:12:53+02:00</time>
      </trkpt>
      <trkpt lat="48.20215" lon="7.04174">
        <ele>579</ele>
        <time>2021-04-04T11:13:12+02:00</time>
      </trkpt>
      <trkpt lat="48.20206" lon="7.04202">
        <ele>580</ele>
        <time>2021-04-04T11:13:32+02:00</time>
      </trkpt>
      <trkpt lat="48.20195" lon="7.04229">
        <ele>580</ele>
        <time>2021-04-04T11:13:50+02:00</time>
      </trkpt>
      <trkpt lat="48.20184" lon="7.04254">
        <ele>581</ele>
        <time>2021-04-04T11:14:12+02:00</time>
      </trkpt>
      <trkpt lat="48.20165" lon="7.04281">
        <ele>582</ele>
        <time>2021-04-04T11:14:31+02:00</time>
      </trkpt>
      <trkpt lat="48.20148" lon="7.04305">
        <ele>584</ele>
        <time>2021-04-04T11:15:05+02:00</time>
      </trkpt>
      <trkpt lat="48.20134" lon="7.04329">
        <ele>585</ele>
        <time>2021-04-04T11:15:22+02:00</time>
      </trkpt>
      <trkpt lat="48.20127" lon="7.04338">
        <ele>585</ele>
        <time>2021-04-04T11:15:59+02:00</time>
      </trkpt>
      <trkpt lat="48.20136" lon="7.04303">
        <ele>585</ele>
        <time>2021-04-04T11:16:54+02:00</time>
      </trkpt>
      <trkpt lat="48.20136" lon="7.04272">
        <ele>586</ele>
        <time>2021-04-04T11:17:12+02:00</time>
      </trkpt>
      <trkpt lat="48.20141" lon="7.04241">
        <ele>586</ele>
        <time>2021-04-04T11:17:29+02:00</time>
      </trkpt>
      <trkpt lat="48.20146" lon="7.04211">
        <ele>586</ele>
        <time>2021-04-04T11:17:48+02:00</time>
      </trkpt>
      <trkpt lat="48.2015" lon="7.04179">
        <ele>586</ele>
        <time>2021-04-04T11:18:08+02:00</time>
      </trkpt>
      <trkpt lat="48.20136" lon="7.04164">
        <ele>589</ele>
        <time>2021-04-04T11:18:27+02:00</time>
      </trkpt>
      <trkpt lat="48.2012" lon="7.04151">
        <ele>592</ele>
        <time>2021-04-04T11:18:55+02:00</time>
      </trkpt>
      <trkpt lat="48.20104" lon="7.04135">
        <ele>594</ele>
        <time>2021-04-04T11:19:18+02:00</time>
      </trkpt>
      <trkpt lat="48.20089" lon="7.04116">
        <ele>597</ele>
        <time>2021-04-04T11:19:37+02:00</time>
      </trkpt>
      <trkpt lat="48.20069" lon="7.04093">
        <ele>603</ele>
        <time>2021-04-04T11:20:02+02:00</time>
      </trkpt>
      <trkpt lat="48.20051" lon="7.04071">
        <ele>609</ele>
        <time>2021-04-04T11:20:36+02:00</time>
      </trkpt>
      <trkpt lat="48.20031" lon="7.04075">
        <ele>615</ele>
        <time>2021-04-04T11:21:12+02:00</time>
      </trkpt>
      <trkpt lat="48.20014" lon="7.04049">
        <ele>622</ele>
        <time>2021-04-04T11:21:48+02:00</time>
      </trkpt>
      <trkpt lat="48.19992" lon="7.0402">
        <ele>629</ele>
        <time>2021-04-04T11:22:20+02:00</time>
      </trkpt>
      <trkpt lat="48.19969" lon="7.04009">
        <ele>633</ele>
        <time>2021-04-04T11:22:52+02:00</time>
      </trkpt>
      <trkpt lat="48.19948" lon="7.04002">
        <ele>637</ele>
        <time>2021-04-04T11:23:44+02:00</time>
      </trkpt>
      <trkpt lat="48.19919" lon="7.04005">
        <ele>642</ele>
        <time>2021-04-04T11:24:17+02:00</time>
      </trkpt>
      <trkpt lat="48.19903" lon="7.04023">
        <ele>643</ele>
        <time>2021-04-04T11:24:48+02:00</time>
      </trkpt>
      <trkpt lat="48.19891" lon="7.04052">
        <ele>644</ele>
        <time>2021-04-04T11:25:13+02:00</time>
      </trkpt>
      <trkpt lat="48.19877" lon="7.0407">
        <ele>645</ele>
        <time>2021-04-04T11:26:15+02:00</time>
      </trkpt>
      <trkpt lat="48.19863" lon="7.0406">
        <ele>645</ele>
        <time>2021-04-04T11:27:23+02:00</time>
      </trkpt>
      <trkpt lat="48.19846" lon="7.04062">
        <ele>646</ele>
        <time>2021-04-04T11:28:55+02:00</time>
      </trkpt>
      <trkpt lat="48.19827" lon="7.04057">
        <ele>648</ele>
        <time>2021-04-04T11:29:26+02:00</time>
      </trkpt>
      <trkpt lat="48.19807" lon="7.04064">
        <ele>653</ele>
        <time>2021-04-04T11:29:57+02:00</time>
      </trkpt>
      <trkpt lat="48.19785" lon="7.04061">
        <ele>657</ele>
        <time>2021-04-04T11:30:24+02:00</time>
      </trkpt>
      <trkpt lat="48.19761" lon="7.04054">
        <ele>662</ele>
        <time>2021-04-04T11:30:57+02:00</time>
      </trkpt>
      <trkpt lat="48.1975" lon="7.04077">
        <ele>666</ele>
        <time>2021-04-04T11:31:53+02:00</time>
      </trkpt>
      <trkpt lat="48.19734" lon="7.04111">
        <ele>671</ele>
        <time>2021-04-04T11:32:28+02:00</time>
      </trkpt>
      <trkpt lat="48.1972" lon="7.04135">
        <ele>676</ele>
        <time>2021-04-04T11:33:04+02:00</time>
      </trkpt>
      <trkpt lat="48.19711" lon="7.04164">
        <ele>680</ele>
        <time>2021-04-04T11:33:38+02:00</time>
      </trkpt>
      <trkpt lat="48.19713" lon="7.042">
        <ele>681</ele>
        <time>2021-04-04T11:34:10+02:00</time>
      </trkpt>
      <trkpt lat="48.19724" lon="7.04245">
        <ele>679</ele>
        <time>2021-04-04T11:34:49+02:00</time>
      </trkpt>
      <trkpt lat="48.19724" lon="7.04295">
        <ele>683</ele>
        <time>2021-04-04T11:35:15+02:00</time>
      </trkpt>
      <trkpt lat="48.19735" lon="7.04322">
        <ele>681</ele>
        <time>2021-04-04T11:35:42+02:00</time>
      </trkpt>
      <trkpt lat="48.19739" lon="7.04354">
        <ele>682</ele>
        <time>2021-04-04T11:36:01+02:00</time>
      </trkpt>
      <trkpt lat="48.19737" lon="7.04387">
        <ele>684</ele>
        <time>2021-04-04T11:36:21+02:00</time>
      </trkpt>
      <trkpt lat="48.19728" lon="7.0443">
        <ele>688</ele>
        <time>2021-04-04T11:36:59+02:00</time>
      </trkpt>
      <trkpt lat="48.1971" lon="7.04468">
        <ele>691</ele>
        <time>2021-04-04T11:37:32+02:00</time>
      </trkpt>
      <trkpt lat="48.19676" lon="7.0452">
        <ele>694</ele>
        <time>2021-04-04T11:38:05+02:00</time>
      </trkpt>
      <trkpt lat="48.19631" lon="7.04558">
        <ele>694</ele>
        <time>2021-04-04T11:38:40+02:00</time>
      </trkpt>
      <trkpt lat="48.19616" lon="7.04564">
        <ele>696</ele>
        <time>2021-04-04T11:39:18+02:00</time>
      </trkpt>
      <trkpt lat="48.19595" lon="7.04579">
        <ele>697</ele>
        <time>2021-04-04T11:39:54+02:00</time>
      </trkpt>
      <trkpt lat="48.19583" lon="7.04593">
        <ele>696</ele>
        <time>2021-04-04T11:40:28+02:00</time>
      </trkpt>
      <trkpt lat="48.1957" lon="7.04618">
        <ele>695</ele>
        <time>2021-04-04T11:41:03+02:00</time>
      </trkpt>
      <trkpt lat="48.19537" lon="7.04649">
        <ele>699</ele>
        <time>2021-04-04T11:41:35+02:00</time>
      </trkpt>
      <trkpt lat="48.19497" lon="7.04696">
        <ele>708</ele>
        <time>2021-04-04T11:42:05+02:00</time>
      </trkpt>
      <trkpt lat="48.19485" lon="7.04726">
        <ele>711</ele>
        <time>2021-04-04T11:42:55+02:00</time>
      </trkpt>
      <trkpt lat="48.19463" lon="7.04724">
        <ele>718</ele>
        <time>2021-04-04T11:44:08+02:00</time>
      </trkpt>
      <trkpt lat="48.1946" lon="7.04738">
        <ele>718</ele>
        <time>2021-04-04T11:45:18+02:00</time>
      </trkpt>
      <trkpt lat="48.19464" lon="7.04778">
        <ele>720</ele>
        <time>2021-04-04T11:45:48+02:00</time>
      </trkpt>
      <trkpt lat="48.19474" lon="7.04812">
        <ele>722</ele>
        <time>2021-04-04T11:46:09+02:00</time>
      </trkpt>
      <trkpt lat="48.19491" lon="7.04845">
        <ele>724</ele>
        <time>2021-04-04T11:46:36+02:00</time>
      </trkpt>
      <trkpt lat="48.19499" lon="7.04884">
        <ele>726</ele>
        <time>2021-04-04T11:47:01+02:00</time>
      </trkpt>
      <trkpt lat="48.19504" lon="7.0493">
        <ele>727</ele>
        <time>2021-04-04T11:47:35+02:00</time>
      </trkpt>
      <trkpt lat="48.19505" lon="7.04976">
        <ele>723</ele>
        <time>2021-04-04T11:48:13+02:00</time>
      </trkpt>
      <trkpt lat="48.19485" lon="7.0502">
        <ele>725</ele>
        <time>2021-04-04T11:48:53+02:00</time>
      </trkpt>
      <trkpt lat="48.19463" lon="7.05065">
        <ele>727</ele>
        <time>2021-04-04T11:49:24+02:00</time>
      </trkpt>
      <trkpt lat="48.19442" lon="7.05081">
        <ele>731</ele>
        <time>2021-04-04T11:49:51+02:00</time>
      </trkpt>
      <trkpt lat="48.19423" lon="7.05099">
        <ele>733</ele>
        <time>2021-04-04T11:50:23+02:00</time>
      </trkpt>
      <trkpt lat="48.19398" lon="7.05132">
        <ele>733</ele>
        <time>2021-04-04T11:50:54+02:00</time>
      </trkpt>
      <trkpt lat="48.19372" lon="7.05184">
        <ele>731</ele>
        <time>2021-04-04T11:51:24+02:00</time>
      </trkpt>
      <trkpt lat="48.19353" lon="7.05222">
        <ele>730</ele>
        <time>2021-04-04T11:51:57+02:00</time>
      </trkpt>
      <trkpt lat="48.19327" lon="7.05268">
        <ele>729</ele>
        <time>2021-04-04T11:52:28+02:00</time>
      </trkpt>
      <trkpt lat="48.19306" lon="7.05273">
        <ele>736</ele>
        <time>2021-04-04T11:52:56+02:00</time>
      </trkpt>
      <trkpt lat="48.19278" lon="7.05323">
        <ele>739</ele>
        <time>2021-04-04T11:53:28+02:00</time>
      </trkpt>
      <trkpt lat="48.19252" lon="7.05396">
        <ele>739</ele>
        <time>2021-04-04T11:54:02+02:00</time>
      </trkpt>
      <trkpt lat="48.1924" lon="7.05427">
        <ele>740</ele>
        <time>2021-04-04T11:54:32+02:00</time>
      </trkpt>
      <trkpt lat="48.19226" lon="7.05459">
        <ele>740</ele>
        <time>2021-04-04T11:55:06+02:00</time>
      </trkpt>
      <trkpt lat="48.19326" lon="7.05392">
        <ele>714</ele>
      </trkpt>
      <trkpt lat="48.1921" lon="7.05491">
        <ele>739</ele>
        <time>2021-04-04T11:55:39+02:00</time>
      </trkpt>
      <trkpt lat="48.19195" lon="7.05513">
        <ele>739</ele>
        <time>2021-04-04T11:56:18+02:00</time>
      </trkpt>
      <trkpt lat="48.19194" lon="7.05513">
        <ele>739</ele>
        <time>2021-04-04T11:56:57+02:00</time>
      </trkpt>
      <trkpt lat="48.19186" lon="7.05532">
        <ele>738</ele>
        <time>2021-04-04T11:57:40+02:00</time>
      </trkpt>
      <trkpt lat="48.19183" lon="7.05565">
        <ele>731</ele>
        <time>2021-04-04T11:58:23+02:00</time>
      </trkpt>
      <trkpt lat="48.1921" lon="7.0558">
        <ele>726</ele>
        <time>2021-04-04T11:58:59+02:00</time>
      </trkpt>
      <trkpt lat="48.19225" lon="7.05599">
        <ele>728</ele>
        <time>2021-04-04T11:59:32+02:00</time>
      </trkpt>
      <trkpt lat="48.19221" lon="7.0563">
        <ele>735</ele>
        <time>2021-04-04T12:00:03+02:00</time>
      </trkpt>
      <trkpt lat="48.19193" lon="7.05658">
        <ele>741</ele>
        <time>2021-04-04T12:00:34+02:00</time>
      </trkpt>
      <trkpt lat="48.19179" lon="7.05679">
        <ele>746</ele>
        <time>2021-04-04T12:01:09+02:00</time>
      </trkpt>
      <trkpt lat="48.19147" lon="7.05702">
        <ele>749</ele>
        <time>2021-04-04T12:01:37+02:00</time>
      </trkpt>
      <trkpt lat="48.19119" lon="7.05725">
        <ele>751</ele>
        <time>2021-04-04T12:02:07+02:00</time>
      </trkpt>
      <trkpt lat="48.19115" lon="7.05759">
        <ele>757</ele>
        <time>2021-04-04T12:02:33+02:00</time>
      </trkpt>
      <trkpt lat="48.19092" lon="7.05807">
        <ele>764</ele>
        <time>2021-04-04T12:03:07+02:00</time>
      </trkpt>
      <trkpt lat="48.19065" lon="7.0584">
        <ele>766</ele>
        <time>2021-04-04T12:03:35+02:00</time>
      </trkpt>
      <trkpt lat="48.19033" lon="7.05871">
        <ele>766</ele>
        <time>2021-04-04T12:04:08+02:00</time>
      </trkpt>
      <trkpt lat="48.19026" lon="7.05912">
        <ele>770</ele>
        <time>2021-04-04T12:04:37+02:00</time>
      </trkpt>
      <trkpt lat="48.19017" lon="7.05951">
        <ele>772</ele>
        <time>2021-04-04T12:05:10+02:00</time>
      </trkpt>
      <trkpt lat="48.18997" lon="7.05991">
        <ele>772</ele>
        <time>2021-04-04T12:05:45+02:00</time>
      </trkpt>
      <trkpt lat="48.19009" lon="7.05982">
        <ele>774</ele>
        <time>2021-04-04T12:07:19+02:00</time>
      </trkpt>
      <trkpt lat="48.18984" lon="7.06025">
        <ele>775</ele>
        <time>2021-04-04T12:08:55+02:00</time>
      </trkpt>
      <trkpt lat="48.18969" lon="7.06064">
        <ele>778</ele>
        <time>2021-04-04T12:09:19+02:00</time>
      </trkpt>
      <trkpt lat="48.18962" lon="7.06103">
        <ele>781</ele>
        <time>2021-04-04T12:09:45+02:00</time>
      </trkpt>
      <trkpt lat="48.18955" lon="7.06147">
        <ele>784</ele>
        <time>2021-04-04T12:10:14+02:00</time>
      </trkpt>
      <trkpt lat="48.18952" lon="7.06184">
        <ele>787</ele>
        <time>2021-04-04T12:10:46+02:00</time>
      </trkpt>
      <trkpt lat="48.18941" lon="7.06225">
        <ele>789</ele>
        <time>2021-04-04T12:11:12+02:00</time>
      </trkpt>
      <trkpt lat="48.18941" lon="7.06274">
        <ele>797</ele>
        <time>2021-04-04T12:11:37+02:00</time>
      </trkpt>
      <trkpt lat="48.18933" lon="7.06314">
        <ele>802</ele>
        <time>2021-04-04T12:12:07+02:00</time>
      </trkpt>
      <trkpt lat="48.18926" lon="7.06348">
        <ele>806</ele>
        <time>2021-04-04T12:12:37+02:00</time>
      </trkpt>
      <trkpt lat="48.18926" lon="7.06383">
        <ele>810</ele>
        <time>2021-04-04T12:13:05+02:00</time>
      </trkpt>
      <trkpt lat="48.1892" lon="7.06428">
        <ele>814</ele>
        <time>2021-04-04T12:13:29+02:00</time>
      </trkpt>
      <trkpt lat="48.18902" lon="7.0646">
        <ele>816</ele>
        <time>2021-04-04T12:13:57+02:00</time>
      </trkpt>
      <trkpt lat="48.18852" lon="7.06433">
        <ele>802</ele>
        <time>2021-04-04T12:14:33+02:00</time>
      </trkpt>
      <trkpt lat="48.18842" lon="7.06421">
        <ele>799</ele>
        <time>2021-04-04T12:15:46+02:00</time>
      </trkpt>
      <trkpt lat="48.18844" lon="7.0643">
        <ele>800</ele>
        <time>2021-04-04T12:16:30+02:00</time>
      </trkpt>
      <trkpt lat="48.18843" lon="7.06383">
        <ele>798</ele>
        <time>2021-04-04T12:17:50+02:00</time>
      </trkpt>
      <trkpt lat="48.18833" lon="7.06339">
        <ele>795</ele>
        <time>2021-04-04T12:18:22+02:00</time>
      </trkpt>
      <trkpt lat="48.18839" lon="7.0629">
        <ele>793</ele>
        <time>2021-04-04T12:18:52+02:00</time>
      </trkpt>
      <trkpt lat="48.18842" lon="7.0628">
        <ele>793</ele>
        <time>2021-04-04T12:20:05+02:00</time>
      </trkpt>
      <trkpt lat="48.18838" lon="7.06251">
        <ele>792</ele>
        <time>2021-04-04T12:20:41+02:00</time>
      </trkpt>
      <trkpt lat="48.18837" lon="7.062">
        <ele>790</ele>
        <time>2021-04-04T12:21:14+02:00</time>
      </trkpt>
      <trkpt lat="48.18843" lon="7.06158">
        <ele>788</ele>
        <time>2021-04-04T12:21:46+02:00</time>
      </trkpt>
      <trkpt lat="48.18844" lon="7.06119">
        <ele>786</ele>
        <time>2021-04-04T12:22:10+02:00</time>
      </trkpt>
      <trkpt lat="48.1885" lon="7.06069">
        <ele>784</ele>
        <time>2021-04-04T12:22:43+02:00</time>
      </trkpt>
      <trkpt lat="48.18858" lon="7.06022">
        <ele>785</ele>
        <time>2021-04-04T12:23:16+02:00</time>
      </trkpt>
      <trkpt lat="48.18875" lon="7.05994">
        <ele>782</ele>
        <time>2021-04-04T12:23:40+02:00</time>
      </trkpt>
      <trkpt lat="48.18892" lon="7.05967">
        <ele>780</ele>
        <time>2021-04-04T12:24:03+02:00</time>
      </trkpt>
      <trkpt lat="48.189" lon="7.05933">
        <ele>779</ele>
        <time>2021-04-04T12:24:28+02:00</time>
      </trkpt>
      <trkpt lat="48.18916" lon="7.05894">
        <ele>775</ele>
        <time>2021-04-04T12:25:01+02:00</time>
      </trkpt>
      <trkpt lat="48.18932" lon="7.0586">
        <ele>775</ele>
        <time>2021-04-04T12:25:28+02:00</time>
      </trkpt>
      <trkpt lat="48.18947" lon="7.0582">
        <ele>775</ele>
        <time>2021-04-04T12:26:04+02:00</time>
      </trkpt>
      <trkpt lat="48.18966" lon="7.05791">
        <ele>772</ele>
        <time>2021-04-04T12:26:32+02:00</time>
      </trkpt>
      <trkpt lat="48.18983" lon="7.0576">
        <ele>766</ele>
        <time>2021-04-04T12:26:57+02:00</time>
      </trkpt>
      <trkpt lat="48.19001" lon="7.0572">
        <ele>761</ele>
        <time>2021-04-04T12:27:27+02:00</time>
      </trkpt>
      <trkpt lat="48.19017" lon="7.05687">
        <ele>761</ele>
        <time>2021-04-04T12:27:54+02:00</time>
      </trkpt>
      <trkpt lat="48.19027" lon="7.05644">
        <ele>764</ele>
        <time>2021-04-04T12:28:24+02:00</time>
      </trkpt>
      <trkpt lat="48.19038" lon="7.05602">
        <ele>768</ele>
        <time>2021-04-04T12:28:56+02:00</time>
      </trkpt>
      <trkpt lat="48.19047" lon="7.05564">
        <ele>772</ele>
        <time>2021-04-04T12:29:27+02:00</time>
      </trkpt>
      <trkpt lat="48.1906" lon="7.05528">
        <ele>776</ele>
        <time>2021-04-04T12:29:48+02:00</time>
      </trkpt>
      <trkpt lat="48.19097" lon="7.05492">
        <ele>774</ele>
        <time>2021-04-04T12:30:18+02:00</time>
      </trkpt>
      <trkpt lat="48.19127" lon="7.05462">
        <ele>775</ele>
        <time>2021-04-04T12:30:47+02:00</time>
      </trkpt>
      <trkpt lat="48.19148" lon="7.05445">
        <ele>774</ele>
        <time>2021-04-04T12:31:10+02:00</time>
      </trkpt>
      <trkpt lat="48.19149" lon="7.05425">
        <ele>780</ele>
        <time>2021-04-04T12:31:35+02:00</time>
      </trkpt>
      <trkpt lat="48.19163" lon="7.05401">
        <ele>781</ele>
        <time>2021-04-04T12:31:55+02:00</time>
      </trkpt>
      <trkpt lat="48.19173" lon="7.05365">
        <ele>784</ele>
        <time>2021-04-04T12:32:18+02:00</time>
      </trkpt>
      <trkpt lat="48.19179" lon="7.05329">
        <ele>787</ele>
        <time>2021-04-04T12:32:41+02:00</time>
      </trkpt>
      <trkpt lat="48.19187" lon="7.05295">
        <ele>786</ele>
        <time>2021-04-04T12:33:01+02:00</time>
      </trkpt>
      <trkpt lat="48.19206" lon="7.05253">
        <ele>781</ele>
        <time>2021-04-04T12:33:28+02:00</time>
      </trkpt>
      <trkpt lat="48.19208" lon="7.05214">
        <ele>789</ele>
        <time>2021-04-04T12:33:52+02:00</time>
      </trkpt>
      <trkpt lat="48.19236" lon="7.05187">
        <ele>783</ele>
        <time>2021-04-04T12:34:24+02:00</time>
      </trkpt>
      <trkpt lat="48.19248" lon="7.05172">
        <ele>781</ele>
        <time>2021-04-04T12:35:17+02:00</time>
      </trkpt>
      <trkpt lat="48.19268" lon="7.05142">
        <ele>777</ele>
        <time>2021-04-04T12:35:43+02:00</time>
      </trkpt>
      <trkpt lat="48.19286" lon="7.0511">
        <ele>774</ele>
        <time>2021-04-04T12:36:09+02:00</time>
      </trkpt>
      <trkpt lat="48.19298" lon="7.05079">
        <ele>773</ele>
        <time>2021-04-04T12:36:31+02:00</time>
      </trkpt>
      <trkpt lat="48.1931" lon="7.05052">
        <ele>771</ele>
        <time>2021-04-04T12:36:56+02:00</time>
      </trkpt>
      <trkpt lat="48.19318" lon="7.05011">
        <ele>771</ele>
        <time>2021-04-04T12:37:28+02:00</time>
      </trkpt>
      <trkpt lat="48.19316" lon="7.04964">
        <ele>771</ele>
        <time>2021-04-04T12:37:56+02:00</time>
      </trkpt>
      <trkpt lat="48.19306" lon="7.04923">
        <ele>773</ele>
        <time>2021-04-04T12:38:26+02:00</time>
      </trkpt>
      <trkpt lat="48.19306" lon="7.04866">
        <ele>771</ele>
        <time>2021-04-04T12:38:54+02:00</time>
      </trkpt>
      <trkpt lat="48.19311" lon="7.04819">
        <ele>768</ele>
        <time>2021-04-04T12:39:21+02:00</time>
      </trkpt>
      <trkpt lat="48.19315" lon="7.04771">
        <ele>768</ele>
        <time>2021-04-04T12:39:49+02:00</time>
      </trkpt>
      <trkpt lat="48.19313" lon="7.04722">
        <ele>776</ele>
        <time>2021-04-04T12:40:15+02:00</time>
      </trkpt>
      <trkpt lat="48.1932" lon="7.04668">
        <ele>783</ele>
        <time>2021-04-04T12:40:45+02:00</time>
      </trkpt>
      <trkpt lat="48.19356" lon="7.04618">
        <ele>777</ele>
        <time>2021-04-04T12:41:20+02:00</time>
      </trkpt>
      <trkpt lat="48.19368" lon="7.04588">
        <ele>779</ele>
        <time>2021-04-04T12:41:42+02:00</time>
      </trkpt>
      <trkpt lat="48.19389" lon="7.04557">
        <ele>775</ele>
        <time>2021-04-04T12:42:05+02:00</time>
      </trkpt>
      <trkpt lat="48.19406" lon="7.04521">
        <ele>776</ele>
        <time>2021-04-04T12:42:37+02:00</time>
      </trkpt>
      <trkpt lat="48.19441" lon="7.04476">
        <ele>772</ele>
        <time>2021-04-04T12:43:06+02:00</time>
      </trkpt>
      <trkpt lat="48.19459" lon="7.04444">
        <ele>772</ele>
        <time>2021-04-04T12:43:31+02:00</time>
      </trkpt>
      <trkpt lat="48.19473" lon="7.04415">
        <ele>772</ele>
        <time>2021-04-04T12:43:56+02:00</time>
      </trkpt>
      <trkpt lat="48.1951" lon="7.04372">
        <ele>762</ele>
        <time>2021-04-04T12:44:23+02:00</time>
      </trkpt>
      <trkpt lat="48.19533" lon="7.04331">
        <ele>757</ele>
        <time>2021-04-04T12:44:50+02:00</time>
      </trkpt>
      <trkpt lat="48.1953" lon="7.04291">
        <ele>756</ele>
        <time>2021-04-04T12:45:14+02:00</time>
      </trkpt>
      <trkpt lat="48.19526" lon="7.04259">
        <ele>756</ele>
        <time>2021-04-04T12:45:33+02:00</time>
      </trkpt>
      <trkpt lat="48.19523" lon="7.04224">
        <ele>753</ele>
        <time>2021-04-04T12:46:00+02:00</time>
      </trkpt>
      <trkpt lat="48.19509" lon="7.04178">
        <ele>752</ele>
        <time>2021-04-04T12:46:25+02:00</time>
      </trkpt>
      <trkpt lat="48.19505" lon="7.04128">
        <ele>750</ele>
        <time>2021-04-04T12:46:50+02:00</time>
      </trkpt>
      <trkpt lat="48.19502" lon="7.04087">
        <ele>750</ele>
        <time>2021-04-04T12:47:15+02:00</time>
      </trkpt>
      <trkpt lat="48.19496" lon="7.04038">
        <ele>752</ele>
        <time>2021-04-04T12:47:39+02:00</time>
      </trkpt>
      <trkpt lat="48.19489" lon="7.03984">
        <ele>752</ele>
        <time>2021-04-04T12:48:03+02:00</time>
      </trkpt>
      <trkpt lat="48.19477" lon="7.0394">
        <ele>754</ele>
        <time>2021-04-04T12:48:29+02:00</time>
      </trkpt>
      <trkpt lat="48.19477" lon="7.03897">
        <ele>752</ele>
        <time>2021-04-04T12:48:48+02:00</time>
      </trkpt>
      <trkpt lat="48.19502" lon="7.03853">
        <ele>740</ele>
        <time>2021-04-04T12:49:10+02:00</time>
      </trkpt>
      <trkpt lat="48.19527" lon="7.03825">
        <ele>732</ele>
        <time>2021-04-04T12:49:30+02:00</time>
      </trkpt>
      <trkpt lat="48.19541" lon="7.03784">
        <ele>729</ele>
        <time>2021-04-04T12:49:54+02:00</time>
      </trkpt>
      <trkpt lat="48.19552" lon="7.03755">
        <ele>728</ele>
        <time>2021-04-04T12:50:11+02:00</time>
      </trkpt>
      <trkpt lat="48.19565" lon="7.03728">
        <ele>727</ele>
        <time>2021-04-04T12:50:33+02:00</time>
      </trkpt>
      <trkpt lat="48.19575" lon="7.03701">
        <ele>727</ele>
        <time>2021-04-04T12:50:55+02:00</time>
      </trkpt>
      <trkpt lat="48.19601" lon="7.03669">
        <ele>723</ele>
        <time>2021-04-04T12:51:15+02:00</time>
      </trkpt>
      <trkpt lat="48.19612" lon="7.03641">
        <ele>724</ele>
        <time>2021-04-04T12:51:31+02:00</time>
      </trkpt>
      <trkpt lat="48.19629" lon="7.03615">
        <ele>723</ele>
        <time>2021-04-04T12:51:48+02:00</time>
      </trkpt>
      <trkpt lat="48.19645" lon="7.03591">
        <ele>721</ele>
        <time>2021-04-04T12:52:05+02:00</time>
      </trkpt>
      <trkpt lat="48.19656" lon="7.03566">
        <ele>720</ele>
        <time>2021-04-04T12:52:21+02:00</time>
      </trkpt>
      <trkpt lat="48.19667" lon="7.0354">
        <ele>721</ele>
        <time>2021-04-04T12:52:38+02:00</time>
      </trkpt>
      <trkpt lat="48.19676" lon="7.03508">
        <ele>723</ele>
        <time>2021-04-04T12:52:57+02:00</time>
      </trkpt>
      <trkpt lat="48.19683" lon="7.03475">
        <ele>723</ele>
        <time>2021-04-04T12:53:20+02:00</time>
      </trkpt>
      <trkpt lat="48.19684" lon="7.03476">
        <ele>723</ele>
        <time>2021-04-04T13:02:14+02:00</time>
      </trkpt>
      <trkpt lat="48.19687" lon="7.03451">
        <ele>722</ele>
        <time>2021-04-04T13:58:55+02:00</time>
      </trkpt>
      <trkpt lat="48.19688" lon="7.03421">
        <ele>722</ele>
        <time>2021-04-04T13:59:17+02:00</time>
      </trkpt>
      <trkpt lat="48.1969" lon="7.03419">
        <ele>722</ele>
        <time>2021-04-04T14:00:37+02:00</time>
      </trkpt>
      <trkpt lat="48.19691" lon="7.03378">
        <ele>725</ele>
        <time>2021-04-04T14:01:08+02:00</time>
      </trkpt>
      <trkpt lat="48.19698" lon="7.0334">
        <ele>727</ele>
        <time>2021-04-04T14:01:33+02:00</time>
      </trkpt>
      <trkpt lat="48.19702" lon="7.03308">
        <ele>731</ele>
        <time>2021-04-04T14:01:51+02:00</time>
      </trkpt>
      <trkpt lat="48.19726" lon="7.0329">
        <ele>730</ele>
        <time>2021-04-04T14:02:17+02:00</time>
      </trkpt>
      <trkpt lat="48.19745" lon="7.0327">
        <ele>730</ele>
        <time>2021-04-04T14:02:36+02:00</time>
      </trkpt>
      <trkpt lat="48.19762" lon="7.03276">
        <ele>727</ele>
        <time>2021-04-04T14:03:00+02:00</time>
      </trkpt>
      <trkpt lat="48.19793" lon="7.03285">
        <ele>722</ele>
        <time>2021-04-04T14:03:23+02:00</time>
      </trkpt>
      <trkpt lat="48.1982" lon="7.03295">
        <ele>717</ele>
        <time>2021-04-04T14:03:51+02:00</time>
      </trkpt>
      <trkpt lat="48.19844" lon="7.03281">
        <ele>717</ele>
        <time>2021-04-04T14:04:17+02:00</time>
      </trkpt>
      <trkpt lat="48.19867" lon="7.03271">
        <ele>717</ele>
        <time>2021-04-04T14:04:39+02:00</time>
      </trkpt>
      <trkpt lat="48.19889" lon="7.0328">
        <ele>715</ele>
        <time>2021-04-04T14:05:03+02:00</time>
      </trkpt>
      <trkpt lat="48.19911" lon="7.03307">
        <ele>713</ele>
        <time>2021-04-04T14:05:30+02:00</time>
      </trkpt>
      <trkpt lat="48.19933" lon="7.03333">
        <ele>709</ele>
        <time>2021-04-04T14:05:58+02:00</time>
      </trkpt>
      <trkpt lat="48.19954" lon="7.0334">
        <ele>705</ele>
        <time>2021-04-04T14:06:31+02:00</time>
      </trkpt>
      <trkpt lat="48.19961" lon="7.03355">
        <ele>701</ele>
        <time>2021-04-04T14:07:19+02:00</time>
      </trkpt>
      <trkpt lat="48.19969" lon="7.03339">
        <ele>703</ele>
        <time>2021-04-04T14:08:36+02:00</time>
      </trkpt>
      <trkpt lat="48.19985" lon="7.03334">
        <ele>702</ele>
        <time>2021-04-04T14:09:30+02:00</time>
      </trkpt>
      <trkpt lat="48.20014" lon="7.03329">
        <ele>698</ele>
        <time>2021-04-04T14:10:00+02:00</time>
      </trkpt>
      <trkpt lat="48.20037" lon="7.03329">
        <ele>694</ele>
        <time>2021-04-04T14:10:22+02:00</time>
      </trkpt>
      <trkpt lat="48.20061" lon="7.03326">
        <ele>691</ele>
        <time>2021-04-04T14:10:44+02:00</time>
      </trkpt>
      <trkpt lat="48.20081" lon="7.03322">
        <ele>688</ele>
        <time>2021-04-04T14:11:02+02:00</time>
      </trkpt>
      <trkpt lat="48.20102" lon="7.03319">
        <ele>684</ele>
        <time>2021-04-04T14:11:21+02:00</time>
      </trkpt>
      <trkpt lat="48.20123" lon="7.03316">
        <ele>680</ele>
        <time>2021-04-04T14:11:38+02:00</time>
      </trkpt>
      <trkpt lat="48.20142" lon="7.03313">
        <ele>676</ele>
        <time>2021-04-04T14:11:58+02:00</time>
      </trkpt>
      <trkpt lat="48.20164" lon="7.03308">
        <ele>672</ele>
        <time>2021-04-04T14:12:17+02:00</time>
      </trkpt>
      <trkpt lat="48.20185" lon="7.03305">
        <ele>668</ele>
        <time>2021-04-04T14:12:35+02:00</time>
      </trkpt>
      <trkpt lat="48.20206" lon="7.03302">
        <ele>663</ele>
        <time>2021-04-04T14:12:53+02:00</time>
      </trkpt>
      <trkpt lat="48.20227" lon="7.033">
        <ele>659</ele>
        <time>2021-04-04T14:13:13+02:00</time>
      </trkpt>
      <trkpt lat="48.20248" lon="7.03293">
        <ele>656</ele>
        <time>2021-04-04T14:13:33+02:00</time>
      </trkpt>
      <trkpt lat="48.20272" lon="7.03291">
        <ele>652</ele>
        <time>2021-04-04T14:13:52+02:00</time>
      </trkpt>
      <trkpt lat="48.20296" lon="7.03287">
        <ele>648</ele>
        <time>2021-04-04T14:14:09+02:00</time>
      </trkpt>
      <trkpt lat="48.20317" lon="7.03281">
        <ele>645</ele>
        <time>2021-04-04T14:14:26+02:00</time>
      </trkpt>
      <trkpt lat="48.20336" lon="7.03269">
        <ele>644</ele>
        <time>2021-04-04T14:14:42+02:00</time>
      </trkpt>
      <trkpt lat="48.20352" lon="7.03255">
        <ele>643</ele>
        <time>2021-04-04T14:14:58+02:00</time>
      </trkpt>
      <trkpt lat="48.20371" lon="7.03244">
        <ele>640</ele>
        <time>2021-04-04T14:15:14+02:00</time>
      </trkpt>
      <trkpt lat="48.20388" lon="7.03234">
        <ele>638</ele>
        <time>2021-04-04T14:15:31+02:00</time>
      </trkpt>
      <trkpt lat="48.20402" lon="7.0321">
        <ele>636</ele>
        <time>2021-04-04T14:15:47+02:00</time>
      </trkpt>
      <trkpt lat="48.20416" lon="7.03188">
        <ele>634</ele>
        <time>2021-04-04T14:16:03+02:00</time>
      </trkpt>
      <trkpt lat="48.2042" lon="7.03161">
        <ele>634</ele>
        <time>2021-04-04T14:16:18+02:00</time>
      </trkpt>
      <trkpt lat="48.20423" lon="7.03131">
        <ele>635</ele>
        <time>2021-04-04T14:16:36+02:00</time>
      </trkpt>
      <trkpt lat="48.20427" lon="7.03098">
        <ele>636</ele>
        <time>2021-04-04T14:16:55+02:00</time>
      </trkpt>
      <trkpt lat="48.20431" lon="7.0306">
        <ele>637</ele>
        <time>2021-04-04T14:17:15+02:00</time>
      </trkpt>
      <trkpt lat="48.20435" lon="7.03025">
        <ele>638</ele>
        <time>2021-04-04T14:17:38+02:00</time>
      </trkpt>
      <trkpt lat="48.20441" lon="7.02988">
        <ele>638</ele>
        <time>2021-04-04T14:18:04+02:00</time>
      </trkpt>
      <trkpt lat="48.20451" lon="7.02948">
        <ele>637</ele>
        <time>2021-04-04T14:18:27+02:00</time>
      </trkpt>
      <trkpt lat="48.20455" lon="7.02903">
        <ele>637</ele>
        <time>2021-04-04T14:18:53+02:00</time>
      </trkpt>
      <trkpt lat="48.20452" lon="7.02911">
        <ele>638</ele>
        <time>2021-04-04T14:19:38+02:00</time>
      </trkpt>
      <trkpt lat="48.2045" lon="7.02911">
        <ele>638</ele>
        <time>2021-04-04T14:20:10+02:00</time>
      </trkpt>
      <trkpt lat="48.20453" lon="7.02914">
        <ele>638</ele>
        <time>2021-04-04T14:20:44+02:00</time>
      </trkpt>
      <trkpt lat="48.20452" lon="7.02908">
        <ele>638</ele>
        <time>2021-04-04T14:21:24+02:00</time>
      </trkpt>
      <trkpt lat="48.20455" lon="7.02914">
        <ele>637</ele>
        <time>2021-04-04T14:22:16+02:00</time>
      </trkpt>
      <trkpt lat="48.20458" lon="7.02927">
        <ele>636</ele>
        <time>2021-04-04T14:22:57+02:00</time>
      </trkpt>
      <trkpt lat="48.2045" lon="7.0292">
        <ele>638</ele>
        <time>2021-04-04T14:23:58+02:00</time>
      </trkpt>
      <trkpt lat="48.20446" lon="7.02932">
        <ele>639</ele>
        <time>2021-04-04T14:24:41+02:00</time>
      </trkpt>
      <trkpt lat="48.20435" lon="7.02973">
        <ele>640</ele>
        <time>2021-04-04T14:25:11+02:00</time>
      </trkpt>
      <trkpt lat="48.20431" lon="7.03009">
        <ele>640</ele>
        <time>2021-04-04T14:25:35+02:00</time>
      </trkpt>
      <trkpt lat="48.2043" lon="7.03035">
        <ele>639</ele>
        <time>2021-04-04T14:26:28+02:00</time>
      </trkpt>
      <trkpt lat="48.20428" lon="7.03062">
        <ele>638</ele>
        <time>2021-04-04T14:26:47+02:00</time>
      </trkpt>
      <trkpt lat="48.20426" lon="7.03093">
        <ele>636</ele>
        <time>2021-04-04T14:27:06+02:00</time>
      </trkpt>
      <trkpt lat="48.2042" lon="7.03125">
        <ele>636</ele>
        <time>2021-04-04T14:27:25+02:00</time>
      </trkpt>
      <trkpt lat="48.20412" lon="7.03159">
        <ele>636</ele>
        <time>2021-04-04T14:27:44+02:00</time>
      </trkpt>
      <trkpt lat="48.20408" lon="7.03185">
        <ele>636</ele>
        <time>2021-04-04T14:28:17+02:00</time>
      </trkpt>
      <trkpt lat="48.20399" lon="7.03208">
        <ele>637</ele>
        <time>2021-04-04T14:30:01+02:00</time>
      </trkpt>
      <trkpt lat="48.20388" lon="7.03233">
        <ele>638</ele>
        <time>2021-04-04T14:30:21+02:00</time>
      </trkpt>
      <trkpt lat="48.20371" lon="7.03241">
        <ele>641</ele>
        <time>2021-04-04T14:31:04+02:00</time>
      </trkpt>
      <trkpt lat="48.20349" lon="7.03251">
        <ele>644</ele>
        <time>2021-04-04T14:31:30+02:00</time>
      </trkpt>
      <trkpt lat="48.20325" lon="7.03267">
        <ele>646</ele>
        <time>2021-04-04T14:32:07+02:00</time>
      </trkpt>
      <trkpt lat="48.20308" lon="7.03273">
        <ele>648</ele>
        <time>2021-04-04T14:32:28+02:00</time>
      </trkpt>
      <trkpt lat="48.20284" lon="7.03279">
        <ele>652</ele>
        <time>2021-04-04T14:32:51+02:00</time>
      </trkpt>
      <trkpt lat="48.20263" lon="7.03283">
        <ele>655</ele>
        <time>2021-04-04T14:33:09+02:00</time>
      </trkpt>
      <trkpt lat="48.20242" lon="7.03284">
        <ele>659</ele>
        <time>2021-04-04T14:33:28+02:00</time>
      </trkpt>
      <trkpt lat="48.20221" lon="7.03293">
        <ele>662</ele>
        <time>2021-04-04T14:33:49+02:00</time>
      </trkpt>
      <trkpt lat="48.20198" lon="7.03292">
        <ele>667</ele>
        <time>2021-04-04T14:34:16+02:00</time>
      </trkpt>
      <trkpt lat="48.20201" lon="7.03298">
        <ele>665</ele>
        <time>2021-04-04T14:35:07+02:00</time>
      </trkpt>
      <trkpt lat="48.20202" lon="7.03301">
        <ele>664</ele>
        <time>2021-04-04T14:36:07+02:00</time>
      </trkpt>
      <trkpt lat="48.20181" lon="7.03299">
        <ele>669</ele>
        <time>2021-04-04T14:36:45+02:00</time>
      </trkpt>
      <trkpt lat="48.20162" lon="7.03304">
        <ele>673</ele>
        <time>2021-04-04T14:37:16+02:00</time>
      </trkpt>
      <trkpt lat="48.2014" lon="7.03302">
        <ele>678</ele>
        <time>2021-04-04T14:37:40+02:00</time>
      </trkpt>
      <trkpt lat="48.20117" lon="7.03306">
        <ele>683</ele>
        <time>2021-04-04T14:38:03+02:00</time>
      </trkpt>
      <trkpt lat="48.20097" lon="7.03309">
        <ele>687</ele>
        <time>2021-04-04T14:38:21+02:00</time>
      </trkpt>
      <trkpt lat="48.20084" lon="7.0331">
        <ele>690</ele>
        <time>2021-04-04T14:38:42+02:00</time>
      </trkpt>
      <trkpt lat="48.20064" lon="7.03309">
        <ele>693</ele>
        <time>2021-04-04T14:39:06+02:00</time>
      </trkpt>
      <trkpt lat="48.20045" lon="7.03314">
        <ele>695</ele>
        <time>2021-04-04T14:39:28+02:00</time>
      </trkpt>
      <trkpt lat="48.2002" lon="7.03318">
        <ele>699</ele>
        <time>2021-04-04T14:39:55+02:00</time>
      </trkpt>
      <trkpt lat="48.19998" lon="7.03318">
        <ele>702</ele>
        <time>2021-04-04T14:40:19+02:00</time>
      </trkpt>
      <trkpt lat="48.1997" lon="7.03322">
        <ele>705</ele>
        <time>2021-04-04T14:40:46+02:00</time>
      </trkpt>
      <trkpt lat="48.19946" lon="7.03324">
        <ele>708</ele>
        <time>2021-04-04T14:41:05+02:00</time>
      </trkpt>
      <trkpt lat="48.19921" lon="7.03317">
        <ele>711</ele>
        <time>2021-04-04T14:41:30+02:00</time>
      </trkpt>
      <trkpt lat="48.199" lon="7.03299">
        <ele>713</ele>
        <time>2021-04-04T14:41:51+02:00</time>
      </trkpt>
      <trkpt lat="48.19912" lon="7.03308">
        <ele>713</ele>
        <time>2021-04-04T14:42:18+02:00</time>
      </trkpt>
      <trkpt lat="48.19931" lon="7.03323">
        <ele>710</ele>
        <time>2021-04-04T14:42:35+02:00</time>
      </trkpt>
      <trkpt lat="48.19951" lon="7.03309">
        <ele>708</ele>
        <time>2021-04-04T14:42:56+02:00</time>
      </trkpt>
      <trkpt lat="48.19963" lon="7.03291">
        <ele>709</ele>
        <time>2021-04-04T14:43:43+02:00</time>
      </trkpt>
      <trkpt lat="48.19972" lon="7.03267">
        <ele>710</ele>
        <time>2021-04-04T14:44:02+02:00</time>
      </trkpt>
      <trkpt lat="48.19978" lon="7.03232">
        <ele>710</ele>
        <time>2021-04-04T14:44:32+02:00</time>
      </trkpt>
      <trkpt lat="48.19972" lon="7.03198">
        <ele>710</ele>
        <time>2021-04-04T14:45:05+02:00</time>
      </trkpt>
      <trkpt lat="48.19979" lon="7.03168">
        <ele>708</ele>
        <time>2021-04-04T14:45:27+02:00</time>
      </trkpt>
      <trkpt lat="48.19991" lon="7.03144">
        <ele>705</ele>
        <time>2021-04-04T14:45:50+02:00</time>
      </trkpt>
      <trkpt lat="48.20004" lon="7.03121">
        <ele>702</ele>
        <time>2021-04-04T14:46:11+02:00</time>
      </trkpt>
      <trkpt lat="48.20018" lon="7.03101">
        <ele>700</ele>
        <time>2021-04-04T14:46:33+02:00</time>
      </trkpt>
      <trkpt lat="48.20027" lon="7.03078">
        <ele>698</ele>
        <time>2021-04-04T14:47:01+02:00</time>
      </trkpt>
      <trkpt lat="48.20041" lon="7.03054">
        <ele>694</ele>
        <time>2021-04-04T14:47:19+02:00</time>
      </trkpt>
      <trkpt lat="48.20056" lon="7.03035">
        <ele>691</ele>
        <time>2021-04-04T14:47:36+02:00</time>
      </trkpt>
      <trkpt lat="48.20062" lon="7.03023">
        <ele>689</ele>
        <time>2021-04-04T14:48:03+02:00</time>
      </trkpt>
      <trkpt lat="48.20061" lon="7.03018">
        <ele>688</ele>
        <time>2021-04-04T14:48:37+02:00</time>
      </trkpt>
      <trkpt lat="48.20087" lon="7.03002">
        <ele>683</ele>
        <time>2021-04-04T14:48:55+02:00</time>
      </trkpt>
      <trkpt lat="48.20103" lon="7.02983">
        <ele>681</ele>
        <time>2021-04-04T14:49:14+02:00</time>
      </trkpt>
      <trkpt lat="48.2011" lon="7.02955">
        <ele>676</ele>
        <time>2021-04-04T14:49:40+02:00</time>
      </trkpt>
      <trkpt lat="48.20109" lon="7.0294">
        <ele>674</ele>
        <time>2021-04-04T14:50:36+02:00</time>
      </trkpt>
      <trkpt lat="48.20091" lon="7.0293">
        <ele>671</ele>
        <time>2021-04-04T14:51:00+02:00</time>
      </trkpt>
      <trkpt lat="48.20066" lon="7.02924">
        <ele>675</ele>
        <time>2021-04-04T14:51:25+02:00</time>
      </trkpt>
      <trkpt lat="48.20042" lon="7.02906">
        <ele>679</ele>
        <time>2021-04-04T14:51:45+02:00</time>
      </trkpt>
      <trkpt lat="48.20019" lon="7.02885">
        <ele>685</ele>
        <time>2021-04-04T14:52:08+02:00</time>
      </trkpt>
      <trkpt lat="48.20013" lon="7.02853">
        <ele>687</ele>
        <time>2021-04-04T14:52:28+02:00</time>
      </trkpt>
      <trkpt lat="48.20014" lon="7.02826">
        <ele>687</ele>
        <time>2021-04-04T14:52:46+02:00</time>
      </trkpt>
      <trkpt lat="48.20015" lon="7.02803">
        <ele>688</ele>
        <time>2021-04-04T14:53:15+02:00</time>
      </trkpt>
      <trkpt lat="48.20018" lon="7.02793">
        <ele>688</ele>
        <time>2021-04-04T14:53:50+02:00</time>
      </trkpt>
      <trkpt lat="48.20028" lon="7.02773">
        <ele>685</ele>
        <time>2021-04-04T14:54:02+02:00</time>
      </trkpt>
      <trkpt lat="48.20035" lon="7.02753">
        <ele>683</ele>
        <time>2021-04-04T14:54:16+02:00</time>
      </trkpt>
      <trkpt lat="48.20047" lon="7.02739">
        <ele>677</ele>
        <time>2021-04-04T14:54:24+02:00</time>
      </trkpt>
      <trkpt lat="48.20047" lon="7.02709">
        <ele>678</ele>
        <time>2021-04-04T14:54:38+02:00</time>
      </trkpt>
      <trkpt lat="48.20058" lon="7.02692">
        <ele>673</ele>
        <time>2021-04-04T14:54:50+02:00</time>
      </trkpt>
      <trkpt lat="48.2006" lon="7.0266">
        <ele>672</ele>
        <time>2021-04-04T14:55:05+02:00</time>
      </trkpt>
      <trkpt lat="48.20058" lon="7.02629">
        <ele>669</ele>
        <time>2021-04-04T14:55:21+02:00</time>
      </trkpt>
      <trkpt lat="48.20049" lon="7.02603">
        <ele>670</ele>
        <time>2021-04-04T14:55:38+02:00</time>
      </trkpt>
      <trkpt lat="48.2004" lon="7.02581">
        <ele>671</ele>
        <time>2021-04-04T14:55:59+02:00</time>
      </trkpt>
      <trkpt lat="48.2002" lon="7.02548">
        <ele>674</ele>
        <time>2021-04-04T14:56:17+02:00</time>
      </trkpt>
      <trkpt lat="48.20013" lon="7.02519">
        <ele>674</ele>
        <time>2021-04-04T14:56:37+02:00</time>
      </trkpt>
      <trkpt lat="48.20013" lon="7.02494">
        <ele>673</ele>
        <time>2021-04-04T14:57:01+02:00</time>
      </trkpt>
      <trkpt lat="48.20021" lon="7.02472">
        <ele>676</ele>
        <time>2021-04-04T14:57:16+02:00</time>
      </trkpt>
      <trkpt lat="48.20031" lon="7.02454">
        <ele>676</ele>
        <time>2021-04-04T14:57:28+02:00</time>
      </trkpt>
      <trkpt lat="48.20043" lon="7.02428">
        <ele>677</ele>
        <time>2021-04-04T14:57:45+02:00</time>
      </trkpt>
      <trkpt lat="48.20055" lon="7.02415">
        <ele>675</ele>
        <time>2021-04-04T14:57:56+02:00</time>
      </trkpt>
      <trkpt lat="48.20065" lon="7.02403">
        <ele>674</ele>
        <time>2021-04-04T14:58:06+02:00</time>
      </trkpt>
      <trkpt lat="48.20067" lon="7.02379">
        <ele>677</ele>
        <time>2021-04-04T14:58:19+02:00</time>
      </trkpt>
      <trkpt lat="48.20071" lon="7.02351">
        <ele>679</ele>
        <time>2021-04-04T14:58:34+02:00</time>
      </trkpt>
      <trkpt lat="48.20076" lon="7.02326">
        <ele>681</ele>
        <time>2021-04-04T14:58:50+02:00</time>
      </trkpt>
      <trkpt lat="48.20082" lon="7.023">
        <ele>682</ele>
        <time>2021-04-04T14:59:10+02:00</time>
      </trkpt>
      <trkpt lat="48.20084" lon="7.02266">
        <ele>685</ele>
        <time>2021-04-04T14:59:27+02:00</time>
      </trkpt>
      <trkpt lat="48.20086" lon="7.02238">
        <ele>688</ele>
        <time>2021-04-04T14:59:43+02:00</time>
      </trkpt>
      <trkpt lat="48.20091" lon="7.02216">
        <ele>690</ele>
        <time>2021-04-04T14:59:55+02:00</time>
      </trkpt>
      <trkpt lat="48.20089" lon="7.02197">
        <ele>695</ele>
        <time>2021-04-04T15:00:07+02:00</time>
      </trkpt>
      <trkpt lat="48.201" lon="7.02181">
        <ele>693</ele>
        <time>2021-04-04T15:00:19+02:00</time>
      </trkpt>
      <trkpt lat="48.20109" lon="7.02161">
        <ele>692</ele>
        <time>2021-04-04T15:00:36+02:00</time>
      </trkpt>
      <trkpt lat="48.20117" lon="7.02133">
        <ele>693</ele>
        <time>2021-04-04T15:00:51+02:00</time>
      </trkpt>
      <trkpt lat="48.20121" lon="7.02107">
        <ele>694</ele>
        <time>2021-04-04T15:01:03+02:00</time>
      </trkpt>
      <trkpt lat="48.20127" lon="7.02087">
        <ele>694</ele>
        <time>2021-04-04T15:01:16+02:00</time>
      </trkpt>
      <trkpt lat="48.20133" lon="7.02063">
        <ele>693</ele>
        <time>2021-04-04T15:01:28+02:00</time>
      </trkpt>
      <trkpt lat="48.20136" lon="7.02044">
        <ele>692</ele>
        <time>2021-04-04T15:01:38+02:00</time>
      </trkpt>
      <trkpt lat="48.20138" lon="7.0202">
        <ele>692</ele>
        <time>2021-04-04T15:01:51+02:00</time>
      </trkpt>
      <trkpt lat="48.20143" lon="7.02">
        <ele>690</ele>
        <time>2021-04-04T15:02:03+02:00</time>
      </trkpt>
      <trkpt lat="48.20147" lon="7.01976">
        <ele>689</ele>
        <time>2021-04-04T15:02:18+02:00</time>
      </trkpt>
      <trkpt lat="48.20148" lon="7.0195">
        <ele>689</ele>
        <time>2021-04-04T15:02:32+02:00</time>
      </trkpt>
      <trkpt lat="48.20147" lon="7.01924">
        <ele>690</ele>
        <time>2021-04-04T15:02:44+02:00</time>
      </trkpt>
      <trkpt lat="48.20152" lon="7.01896">
        <ele>690</ele>
        <time>2021-04-04T15:02:58+02:00</time>
      </trkpt>
      <trkpt lat="48.20148" lon="7.01868">
        <ele>693</ele>
        <time>2021-04-04T15:03:10+02:00</time>
      </trkpt>
      <trkpt lat="48.20157" lon="7.01843">
        <ele>690</ele>
        <time>2021-04-04T15:03:25+02:00</time>
      </trkpt>
      <trkpt lat="48.20158" lon="7.01815">
        <ele>692</ele>
        <time>2021-04-04T15:03:41+02:00</time>
      </trkpt>
      <trkpt lat="48.20163" lon="7.01791">
        <ele>691</ele>
        <time>2021-04-04T15:03:54+02:00</time>
      </trkpt>
      <trkpt lat="48.20162" lon="7.01766">
        <ele>694</ele>
        <time>2021-04-04T15:04:06+02:00</time>
      </trkpt>
      <trkpt lat="48.20164" lon="7.01736">
        <ele>695</ele>
        <time>2021-04-04T15:04:20+02:00</time>
      </trkpt>
      <trkpt lat="48.20167" lon="7.01714">
        <ele>695</ele>
        <time>2021-04-04T15:04:31+02:00</time>
      </trkpt>
      <trkpt lat="48.20173" lon="7.01697">
        <ele>694</ele>
        <time>2021-04-04T15:04:42+02:00</time>
      </trkpt>
      <trkpt lat="48.20179" lon="7.01675">
        <ele>694</ele>
        <time>2021-04-04T15:04:57+02:00</time>
      </trkpt>
      <trkpt lat="48.2019" lon="7.01657">
        <ele>693</ele>
        <time>2021-04-04T15:05:12+02:00</time>
      </trkpt>
      <trkpt lat="48.20202" lon="7.01639">
        <ele>691</ele>
        <time>2021-04-04T15:05:24+02:00</time>
      </trkpt>
      <trkpt lat="48.20213" lon="7.01619">
        <ele>690</ele>
        <time>2021-04-04T15:05:43+02:00</time>
      </trkpt>
      <trkpt lat="48.20232" lon="7.01596">
        <ele>687</ele>
        <time>2021-04-04T15:05:57+02:00</time>
      </trkpt>
      <trkpt lat="48.2025" lon="7.01586">
        <ele>682</ele>
        <time>2021-04-04T15:06:08+02:00</time>
      </trkpt>
      <trkpt lat="48.2025" lon="7.01567">
        <ele>683</ele>
        <time>2021-04-04T15:06:17+02:00</time>
      </trkpt>
      <trkpt lat="48.20254" lon="7.01541">
        <ele>683</ele>
        <time>2021-04-04T15:06:42+02:00</time>
      </trkpt>
      <trkpt lat="48.20248" lon="7.01518">
        <ele>686</ele>
        <time>2021-04-04T15:06:56+02:00</time>
      </trkpt>
      <trkpt lat="48.20248" lon="7.01499">
        <ele>687</ele>
        <time>2021-04-04T15:07:06+02:00</time>
      </trkpt>
      <trkpt lat="48.20248" lon="7.01476">
        <ele>687</ele>
        <time>2021-04-04T15:07:18+02:00</time>
      </trkpt>
      <trkpt lat="48.20247" lon="7.01449">
        <ele>688</ele>
        <time>2021-04-04T15:07:31+02:00</time>
      </trkpt>
      <trkpt lat="48.20239" lon="7.01423">
        <ele>690</ele>
        <time>2021-04-04T15:07:43+02:00</time>
      </trkpt>
      <trkpt lat="48.20227" lon="7.01411">
        <ele>694</ele>
        <time>2021-04-04T15:07:47+02:00</time>
      </trkpt>
      <trkpt lat="48.20211" lon="7.014">
        <ele>698</ele>
        <time>2021-04-04T15:07:51+02:00</time>
      </trkpt>
      <trkpt lat="48.20197" lon="7.01385">
        <ele>702</ele>
        <time>2021-04-04T15:07:55+02:00</time>
      </trkpt>
      <trkpt lat="48.20183" lon="7.01376">
        <ele>705</ele>
        <time>2021-04-04T15:07:59+02:00</time>
      </trkpt>
      <trkpt lat="48.20176" lon="7.01369">
        <ele>707</ele>
        <time>2021-04-04T15:08:02+02:00</time>
      </trkpt>
      <trkpt lat="48.20182" lon="7.0136">
        <ele>704</ele>
        <time>2021-04-04T15:08:08+02:00</time>
      </trkpt>
      <trkpt lat="48.20216" lon="7.01342">
        <ele>694</ele>
        <time>2021-04-04T15:08:22+02:00</time>
      </trkpt>
      <trkpt lat="48.2022" lon="7.01319">
        <ele>692</ele>
        <time>2021-04-04T15:08:37+02:00</time>
      </trkpt>
      <trkpt lat="48.20224" lon="7.01294">
        <ele>690</ele>
        <time>2021-04-04T15:08:52+02:00</time>
      </trkpt>
      <trkpt lat="48.20222" lon="7.01272">
        <ele>689</ele>
        <time>2021-04-04T15:09:06+02:00</time>
      </trkpt>
      <trkpt lat="48.20214" lon="7.01249">
        <ele>690</ele>
        <time>2021-04-04T15:09:18+02:00</time>
      </trkpt>
      <trkpt lat="48.20211" lon="7.01228">
        <ele>690</ele>
        <time>2021-04-04T15:09:32+02:00</time>
      </trkpt>
      <trkpt lat="48.20201" lon="7.01207">
        <ele>691</ele>
        <time>2021-04-04T15:09:47+02:00</time>
      </trkpt>
      <trkpt lat="48.20191" lon="7.01189">
        <ele>691</ele>
        <time>2021-04-04T15:10:01+02:00</time>
      </trkpt>
      <trkpt lat="48.20177" lon="7.01174">
        <ele>692</ele>
        <time>2021-04-04T15:10:16+02:00</time>
      </trkpt>
      <trkpt lat="48.20174" lon="7.01147">
        <ele>692</ele>
        <time>2021-04-04T15:10:38+02:00</time>
      </trkpt>
      <trkpt lat="48.20168" lon="7.0112">
        <ele>692</ele>
        <time>2021-04-04T15:11:00+02:00</time>
      </trkpt>
      <trkpt lat="48.20164" lon="7.01096">
        <ele>692</ele>
        <time>2021-04-04T15:11:31+02:00</time>
      </trkpt>
      <trkpt lat="48.20176" lon="7.01118">
        <ele>692</ele>
        <time>2021-04-04T15:12:15+02:00</time>
      </trkpt>
      <trkpt lat="48.20177" lon="7.01092">
        <ele>692</ele>
        <time>2021-04-04T15:12:41+02:00</time>
      </trkpt>
      <trkpt lat="48.20181" lon="7.01071">
        <ele>692</ele>
        <time>2021-04-04T15:13:20+02:00</time>
      </trkpt>
      <trkpt lat="48.20179" lon="7.01041">
        <ele>694</ele>
        <time>2021-04-04T15:13:48+02:00</time>
      </trkpt>
      <trkpt lat="48.20175" lon="7.01011">
        <ele>696</ele>
        <time>2021-04-04T15:14:04+02:00</time>
      </trkpt>
      <trkpt lat="48.20176" lon="7.00979">
        <ele>699</ele>
        <time>2021-04-04T15:14:22+02:00</time>
      </trkpt>
      <trkpt lat="48.2018" lon="7.00968">
        <ele>700</ele>
        <time>2021-04-04T15:14:50+02:00</time>
      </trkpt>
      <trkpt lat="48.20185" lon="7.00956">
        <ele>702</ele>
        <time>2021-04-04T15:16:02+02:00</time>
      </trkpt>
      <trkpt lat="48.20196" lon="7.0094">
        <ele>704</ele>
        <time>2021-04-04T15:20:08+02:00</time>
      </trkpt>
      <trkpt lat="48.20203" lon="7.00902">
        <ele>708</ele>
        <time>2021-04-04T15:20:34+02:00</time>
      </trkpt>
      <trkpt lat="48.20202" lon="7.00865">
        <ele>711</ele>
        <time>2021-04-04T15:20:57+02:00</time>
      </trkpt>
      <trkpt lat="48.20205" lon="7.00834">
        <ele>714</ele>
        <time>2021-04-04T15:21:21+02:00</time>
      </trkpt>
      <trkpt lat="48.20207" lon="7.00795">
        <ele>715</ele>
        <time>2021-04-04T15:21:46+02:00</time>
      </trkpt>
      <trkpt lat="48.20217" lon="7.00764">
        <ele>717</ele>
        <time>2021-04-04T15:22:16+02:00</time>
      </trkpt>
      <trkpt lat="48.2022" lon="7.0073">
        <ele>718</ele>
        <time>2021-04-04T15:22:47+02:00</time>
      </trkpt>
      <trkpt lat="48.20221" lon="7.00724">
        <ele>719</ele>
        <time>2021-04-04T15:23:21+02:00</time>
      </trkpt>
      <trkpt lat="48.20221" lon="7.00695">
        <ele>720</ele>
        <time>2021-04-04T15:23:59+02:00</time>
      </trkpt>
      <trkpt lat="48.20221" lon="7.00653">
        <ele>721</ele>
        <time>2021-04-04T15:24:25+02:00</time>
      </trkpt>
      <trkpt lat="48.20216" lon="7.00618">
        <ele>720</ele>
        <time>2021-04-04T15:25:00+02:00</time>
      </trkpt>
      <trkpt lat="48.20214" lon="7.00573">
        <ele>719</ele>
        <time>2021-04-04T15:25:31+02:00</time>
      </trkpt>
      <trkpt lat="48.20223" lon="7.00546">
        <ele>719</ele>
        <time>2021-04-04T15:26:01+02:00</time>
      </trkpt>
      <trkpt lat="48.20228" lon="7.00509">
        <ele>719</ele>
        <time>2021-04-04T15:26:26+02:00</time>
      </trkpt>
      <trkpt lat="48.20237" lon="7.00467">
        <ele>720</ele>
        <time>2021-04-04T15:26:53+02:00</time>
      </trkpt>
      <trkpt lat="48.20238" lon="7.00428">
        <ele>719</ele>
        <time>2021-04-04T15:27:22+02:00</time>
      </trkpt>
      <trkpt lat="48.20247" lon="7.00394">
        <ele>718</ele>
        <time>2021-04-04T15:27:49+02:00</time>
      </trkpt>
      <trkpt lat="48.20249" lon="7.00365">
        <ele>715</ele>
        <time>2021-04-04T15:28:18+02:00</time>
      </trkpt>
      <trkpt lat="48.20238" lon="7.00326">
        <ele>710</ele>
        <time>2021-04-04T15:28:46+02:00</time>
      </trkpt>
      <trkpt lat="48.20233" lon="7.00279">
        <ele>704</ele>
        <time>2021-04-04T15:29:14+02:00</time>
      </trkpt>
      <trkpt lat="48.20235" lon="7.0024">
        <ele>700</ele>
        <time>2021-04-04T15:29:39+02:00</time>
      </trkpt>
      <trkpt lat="48.20232" lon="7.00194">
        <ele>696</ele>
        <time>2021-04-04T15:30:04+02:00</time>
      </trkpt>
      <trkpt lat="48.20229" lon="7.00154">
        <ele>694</ele>
        <time>2021-04-04T15:30:29+02:00</time>
      </trkpt>
      <trkpt lat="48.20235" lon="7.00126">
        <ele>694</ele>
        <time>2021-04-04T15:31:03+02:00</time>
      </trkpt>
      <trkpt lat="48.20237" lon="7.00093">
        <ele>694</ele>
        <time>2021-04-04T15:31:50+02:00</time>
      </trkpt>
      <trkpt lat="48.20241" lon="7.00073">
        <ele>694</ele>
        <time>2021-04-04T15:32:23+02:00</time>
      </trkpt>
      <trkpt lat="48.2024" lon="6.99999">
        <ele>694</ele>
        <time>2021-04-04T15:32:52+02:00</time>
      </trkpt>
      <trkpt lat="48.20242" lon="6.99961">
        <ele>695</ele>
        <time>2021-04-04T15:33:11+02:00</time>
      </trkpt>
      <trkpt lat="48.20248" lon="6.9992">
        <ele>696</ele>
        <time>2021-04-04T15:33:41+02:00</time>
      </trkpt>
      <trkpt lat="48.20266" lon="6.99878">
        <ele>697</ele>
        <time>2021-04-04T15:34:13+02:00</time>
      </trkpt>
      <trkpt lat="48.20287" lon="6.9984">
        <ele>699</ele>
        <time>2021-04-04T15:34:48+02:00</time>
      </trkpt>
      <trkpt lat="48.20302" lon="6.99817">
        <ele>702</ele>
        <time>2021-04-04T15:35:23+02:00</time>
      </trkpt>
      <trkpt lat="48.2031" lon="6.9975">
        <ele>709</ele>
        <time>2021-04-04T15:36:02+02:00</time>
      </trkpt>
      <trkpt lat="48.2031" lon="6.99663">
        <ele>716</ele>
        <time>2021-04-04T15:36:29+02:00</time>
      </trkpt>
      <trkpt lat="48.20313" lon="6.99616">
        <ele>717</ele>
        <time>2021-04-04T15:36:58+02:00</time>
      </trkpt>
      <trkpt lat="48.20321" lon="6.99578">
        <ele>719</ele>
        <time>2021-04-04T15:37:29+02:00</time>
      </trkpt>
      <trkpt lat="48.20332" lon="6.99553">
        <ele>721</ele>
        <time>2021-04-04T15:38:01+02:00</time>
      </trkpt>
      <trkpt lat="48.20344" lon="6.99522">
        <ele>720</ele>
        <time>2021-04-04T15:38:33+02:00</time>
      </trkpt>
      <trkpt lat="48.20347" lon="6.99493">
        <ele>721</ele>
        <time>2021-04-04T15:39:14+02:00</time>
      </trkpt>
      <trkpt lat="48.20356" lon="6.99466">
        <ele>723</ele>
        <time>2021-04-04T15:39:44+02:00</time>
      </trkpt>
      <trkpt lat="48.20357" lon="6.99452">
        <ele>724</ele>
        <time>2021-04-04T15:40:22+02:00</time>
      </trkpt>
      <trkpt lat="48.20358" lon="6.99449">
        <ele>724</ele>
        <time>2021-04-04T15:42:08+02:00</time>
      </trkpt>
      <trkpt lat="48.20357" lon="6.99443">
        <ele>725</ele>
        <time>2021-04-04T15:43:26+02:00</time>
      </trkpt>
      <trkpt lat="48.20362" lon="6.99443">
        <ele>725</ele>
        <time>2021-04-04T15:44:23+02:00</time>
      </trkpt>
      <trkpt lat="48.2036" lon="6.99419">
        <ele>727</ele>
        <time>2021-04-04T15:45:08+02:00</time>
      </trkpt>
      <trkpt lat="48.20369" lon="6.99378">
        <ele>728</ele>
        <time>2021-04-04T15:45:43+02:00</time>
      </trkpt>
      <trkpt lat="48.2037" lon="6.99332">
        <ele>729</ele>
        <time>2021-04-04T15:46:14+02:00</time>
      </trkpt>
      <trkpt lat="48.20378" lon="6.99287">
        <ele>729</ele>
        <time>2021-04-04T15:46:37+02:00</time>
      </trkpt>
      <trkpt lat="48.20385" lon="6.99253">
        <ele>729</ele>
        <time>2021-04-04T15:47:01+02:00</time>
      </trkpt>
      <trkpt lat="48.20393" lon="6.99225">
        <ele>729</ele>
        <time>2021-04-04T15:47:31+02:00</time>
      </trkpt>
      <trkpt lat="48.20407" lon="6.99182">
        <ele>729</ele>
        <time>2021-04-04T15:48:00+02:00</time>
      </trkpt>
      <trkpt lat="48.20421" lon="6.99141">
        <ele>729</ele>
        <time>2021-04-04T15:48:25+02:00</time>
      </trkpt>
      <trkpt lat="48.20436" lon="6.99095">
        <ele>727</ele>
        <time>2021-04-04T15:48:59+02:00</time>
      </trkpt>
      <trkpt lat="48.2045" lon="6.99046">
        <ele>726</ele>
        <time>2021-04-04T15:49:29+02:00</time>
      </trkpt>
      <trkpt lat="48.2046" lon="6.99006">
        <ele>726</ele>
        <time>2021-04-04T15:49:51+02:00</time>
      </trkpt>
      <trkpt lat="48.20462" lon="6.98976">
        <ele>727</ele>
        <time>2021-04-04T15:50:12+02:00</time>
      </trkpt>
      <trkpt lat="48.20464" lon="6.98945">
        <ele>728</ele>
        <time>2021-04-04T15:50:40+02:00</time>
      </trkpt>
      <trkpt lat="48.20455" lon="6.98885">
        <ele>729</ele>
        <time>2021-04-04T15:51:11+02:00</time>
      </trkpt>
      <trkpt lat="48.20451" lon="6.98836">
        <ele>729</ele>
        <time>2021-04-04T15:51:39+02:00</time>
      </trkpt>
      <trkpt lat="48.20459" lon="6.98795">
        <ele>730</ele>
        <time>2021-04-04T15:52:06+02:00</time>
      </trkpt>
      <trkpt lat="48.20464" lon="6.98742">
        <ele>731</ele>
        <time>2021-04-04T15:52:36+02:00</time>
      </trkpt>
      <trkpt lat="48.20477" lon="6.98705">
        <ele>730</ele>
        <time>2021-04-04T15:52:55+02:00</time>
      </trkpt>
      <trkpt lat="48.20477" lon="6.98695">
        <ele>729</ele>
        <time>2021-04-04T15:54:16+02:00</time>
      </trkpt>
      <trkpt lat="48.20485" lon="6.98688">
        <ele>730</ele>
        <time>2021-04-04T15:55:24+02:00</time>
      </trkpt>
      <trkpt lat="48.20486" lon="6.9866">
        <ele>728</ele>
        <time>2021-04-04T15:56:05+02:00</time>
      </trkpt>
      <trkpt lat="48.20485" lon="6.98615">
        <ele>725</ele>
        <time>2021-04-04T15:56:39+02:00</time>
      </trkpt>
      <trkpt lat="48.2048" lon="6.98588">
        <ele>722</ele>
        <time>2021-04-04T15:57:13+02:00</time>
      </trkpt>
      <trkpt lat="48.20478" lon="6.9857">
        <ele>720</ele>
        <time>2021-04-04T15:58:05+02:00</time>
      </trkpt>
      <trkpt lat="48.20463" lon="6.98531">
        <ele>716</ele>
        <time>2021-04-04T15:58:39+02:00</time>
      </trkpt>
      <trkpt lat="48.20442" lon="6.98482">
        <ele>711</ele>
        <time>2021-04-04T15:59:11+02:00</time>
      </trkpt>
      <trkpt lat="48.20418" lon="6.98447">
        <ele>707</ele>
        <time>2021-04-04T15:59:43+02:00</time>
      </trkpt>
      <trkpt lat="48.2039" lon="6.98416">
        <ele>699</ele>
        <time>2021-04-04T16:00:18+02:00</time>
      </trkpt>
      <trkpt lat="48.2037" lon="6.98395">
        <ele>694</ele>
        <time>2021-04-04T16:00:48+02:00</time>
      </trkpt>
      <trkpt lat="48.20343" lon="6.98361">
        <ele>688</ele>
        <time>2021-04-04T16:01:22+02:00</time>
      </trkpt>
      <trkpt lat="48.20325" lon="6.98328">
        <ele>682</ele>
        <time>2021-04-04T16:01:57+02:00</time>
      </trkpt>
      <trkpt lat="48.20336" lon="6.98346">
        <ele>686</ele>
        <time>2021-04-04T16:02:47+02:00</time>
      </trkpt>
      <trkpt lat="48.20324" lon="6.98319">
        <ele>681</ele>
        <time>2021-04-04T16:03:15+02:00</time>
      </trkpt>
      <trkpt lat="48.20309" lon="6.98281">
        <ele>675</ele>
        <time>2021-04-04T16:03:47+02:00</time>
      </trkpt>
      <trkpt lat="48.20291" lon="6.98226">
        <ele>668</ele>
        <time>2021-04-04T16:04:22+02:00</time>
      </trkpt>
      <trkpt lat="48.20271" lon="6.98175">
        <ele>666</ele>
        <time>2021-04-04T16:04:52+02:00</time>
      </trkpt>
      <trkpt lat="48.20261" lon="6.9813">
        <ele>663</ele>
        <time>2021-04-04T16:05:14+02:00</time>
      </trkpt>
      <trkpt lat="48.20256" lon="6.98113">
        <ele>663</ele>
        <time>2021-04-04T16:06:01+02:00</time>
      </trkpt>
      <trkpt lat="48.20254" lon="6.98102">
        <ele>662</ele>
        <time>2021-04-04T16:07:01+02:00</time>
      </trkpt>
      <trkpt lat="48.2024" lon="6.98057">
        <ele>659</ele>
        <time>2021-04-04T16:08:36+02:00</time>
      </trkpt>
      <trkpt lat="48.20229" lon="6.98016">
        <ele>656</ele>
        <time>2021-04-04T16:09:03+02:00</time>
      </trkpt>
      <trkpt lat="48.20219" lon="6.97987">
        <ele>653</ele>
        <time>2021-04-04T16:09:27+02:00</time>
      </trkpt>
      <trkpt lat="48.20212" lon="6.97945">
        <ele>650</ele>
        <time>2021-04-04T16:09:58+02:00</time>
      </trkpt>
      <trkpt lat="48.2021" lon="6.97903">
        <ele>646</ele>
        <time>2021-04-04T16:10:29+02:00</time>
      </trkpt>
      <trkpt lat="48.20192" lon="6.97874">
        <ele>644</ele>
        <time>2021-04-04T16:10:51+02:00</time>
      </trkpt>
      <trkpt lat="48.20172" lon="6.97845">
        <ele>642</ele>
        <time>2021-04-04T16:11:13+02:00</time>
      </trkpt>
      <trkpt lat="48.20156" lon="6.97821">
        <ele>639</ele>
        <time>2021-04-04T16:11:30+02:00</time>
      </trkpt>
      <trkpt lat="48.20154" lon="6.97798">
        <ele>638</ele>
        <time>2021-04-04T16:14:29+02:00</time>
      </trkpt>
      <trkpt lat="48.20155" lon="6.97782">
        <ele>637</ele>
        <time>2021-04-04T16:16:41+02:00</time>
      </trkpt>
      <trkpt lat="48.20182" lon="6.9779">
        <ele>639</ele>
        <time>2021-04-04T16:19:48+02:00</time>
      </trkpt>
      <trkpt lat="48.2018" lon="6.97803">
        <ele>640</ele>
        <time>2021-04-04T16:20:36+02:00</time>
      </trkpt>
      <trkpt lat="48.20206" lon="6.97813">
        <ele>640</ele>
        <time>2021-04-04T16:21:03+02:00</time>
      </trkpt>
      <trkpt lat="48.20226" lon="6.9783">
        <ele>641</ele>
        <time>2021-04-04T16:21:30+02:00</time>
      </trkpt>
      <trkpt lat="48.20251" lon="6.97859">
        <ele>643</ele>
        <time>2021-04-04T16:22:08+02:00</time>
      </trkpt>
      <trkpt lat="48.20269" lon="6.97897">
        <ele>643</ele>
        <time>2021-04-04T16:22:33+02:00</time>
      </trkpt>
      <trkpt lat="48.20284" lon="6.97928">
        <ele>642</ele>
        <time>2021-04-04T16:23:07+02:00</time>
      </trkpt>
      <trkpt lat="48.20308" lon="6.97961">
        <ele>638</ele>
        <time>2021-04-04T16:23:34+02:00</time>
      </trkpt>
      <trkpt lat="48.20322" lon="6.97999">
        <ele>637</ele>
        <time>2021-04-04T16:24:01+02:00</time>
      </trkpt>
      <trkpt lat="48.20342" lon="6.98039">
        <ele>639</ele>
        <time>2021-04-04T16:24:23+02:00</time>
      </trkpt>
      <trkpt lat="48.20365" lon="6.98046">
        <ele>641</ele>
        <time>2021-04-04T16:24:53+02:00</time>
      </trkpt>
      <trkpt lat="48.20385" lon="6.98042">
        <ele>641</ele>
        <time>2021-04-04T16:27:57+02:00</time>
      </trkpt>
      <trkpt lat="48.20384" lon="6.98024">
        <ele>638</ele>
        <time>2021-04-04T16:28:49+02:00</time>
      </trkpt>
      <trkpt lat="48.20395" lon="6.9803">
        <ele>639</ele>
        <time>2021-04-04T16:29:38+02:00</time>
      </trkpt>
      <trkpt lat="48.20402" lon="6.98035">
        <ele>640</ele>
        <time>2021-04-04T16:30:30+02:00</time>
      </trkpt>
      <trkpt lat="48.20412" lon="6.98033">
        <ele>640</ele>
        <time>2021-04-04T16:31:17+02:00</time>
      </trkpt>
      <trkpt lat="48.20437" lon="6.98045">
        <ele>643</ele>
        <time>2021-04-04T16:31:44+02:00</time>
      </trkpt>
      <trkpt lat="48.20467" lon="6.9806">
        <ele>647</ele>
        <time>2021-04-04T16:32:12+02:00</time>
      </trkpt>
      <trkpt lat="48.20492" lon="6.98068">
        <ele>649</ele>
        <time>2021-04-04T16:32:38+02:00</time>
      </trkpt>
      <trkpt lat="48.20522" lon="6.98076">
        <ele>650</ele>
        <time>2021-04-04T16:33:09+02:00</time>
      </trkpt>
      <trkpt lat="48.20551" lon="6.98068">
        <ele>648</ele>
        <time>2021-04-04T16:33:38+02:00</time>
      </trkpt>
      <trkpt lat="48.20586" lon="6.98062">
        <ele>646</ele>
        <time>2021-04-04T16:34:06+02:00</time>
      </trkpt>
      <trkpt lat="48.20609" lon="6.98051">
        <ele>641</ele>
        <time>2021-04-04T16:34:26+02:00</time>
      </trkpt>
      <trkpt lat="48.20629" lon="6.98048">
        <ele>638</ele>
        <time>2021-04-04T16:34:43+02:00</time>
      </trkpt>
      <trkpt lat="48.2065" lon="6.98053">
        <ele>636</ele>
        <time>2021-04-04T16:35:07+02:00</time>
      </trkpt>
      <trkpt lat="48.20671" lon="6.98074">
        <ele>636</ele>
        <time>2021-04-04T16:35:31+02:00</time>
      </trkpt>
      <trkpt lat="48.20698" lon="6.98093">
        <ele>632</ele>
        <time>2021-04-04T16:35:49+02:00</time>
      </trkpt>
      <trkpt lat="48.20717" lon="6.98116">
        <ele>629</ele>
        <time>2021-04-04T16:36:08+02:00</time>
      </trkpt>
      <trkpt lat="48.20727" lon="6.98142">
        <ele>629</ele>
        <time>2021-04-04T16:36:24+02:00</time>
      </trkpt>
      <trkpt lat="48.20746" lon="6.98168">
        <ele>627</ele>
        <time>2021-04-04T16:36:41+02:00</time>
      </trkpt>
      <trkpt lat="48.20758" lon="6.98197">
        <ele>626</ele>
        <time>2021-04-04T16:36:58+02:00</time>
      </trkpt>
      <trkpt lat="48.20769" lon="6.98228">
        <ele>626</ele>
        <time>2021-04-04T16:37:15+02:00</time>
      </trkpt>
      <trkpt lat="48.2078" lon="6.98258">
        <ele>626</ele>
        <time>2021-04-04T16:37:30+02:00</time>
      </trkpt>
      <trkpt lat="48.2079" lon="6.98288">
        <ele>627</ele>
        <time>2021-04-04T16:37:47+02:00</time>
      </trkpt>
      <trkpt lat="48.20806" lon="6.98315">
        <ele>625</ele>
        <time>2021-04-04T16:38:03+02:00</time>
      </trkpt>
      <trkpt lat="48.20821" lon="6.98341">
        <ele>625</ele>
        <time>2021-04-04T16:38:19+02:00</time>
      </trkpt>
      <trkpt lat="48.20843" lon="6.98366">
        <ele>624</ele>
        <time>2021-04-04T16:38:36+02:00</time>
      </trkpt>
      <trkpt lat="48.20861" lon="6.98391">
        <ele>626</ele>
        <time>2021-04-04T16:38:54+02:00</time>
      </trkpt>
      <trkpt lat="48.20881" lon="6.98406">
        <ele>628</ele>
        <time>2021-04-04T16:39:10+02:00</time>
      </trkpt>
      <trkpt lat="48.20901" lon="6.98425">
        <ele>630</ele>
        <time>2021-04-04T16:39:28+02:00</time>
      </trkpt>
      <trkpt lat="48.20922" lon="6.98445">
        <ele>631</ele>
        <time>2021-04-04T16:39:45+02:00</time>
      </trkpt>
      <trkpt lat="48.20944" lon="6.98456">
        <ele>626</ele>
        <time>2021-04-04T16:40:04+02:00</time>
      </trkpt>
      <trkpt lat="48.20966" lon="6.9847">
        <ele>622</ele>
        <time>2021-04-04T16:40:25+02:00</time>
      </trkpt>
      <trkpt lat="48.20989" lon="6.98485">
        <ele>617</ele>
        <time>2021-04-04T16:40:44+02:00</time>
      </trkpt>
      <trkpt lat="48.2102" lon="6.98498">
        <ele>610</ele>
        <time>2021-04-04T16:41:01+02:00</time>
      </trkpt>
      <trkpt lat="48.21041" lon="6.98517">
        <ele>603</ele>
        <time>2021-04-04T16:41:28+02:00</time>
      </trkpt>
      <trkpt lat="48.21048" lon="6.98531">
        <ele>600</ele>
        <time>2021-04-04T16:42:55+02:00</time>
      </trkpt>
      <trkpt lat="48.21047" lon="6.98559">
        <ele>600</ele>
        <time>2021-04-04T16:43:30+02:00</time>
      </trkpt>
      <trkpt lat="48.21044" lon="6.98591">
        <ele>601</ele>
        <time>2021-04-04T16:43:48+02:00</time>
      </trkpt>
      <trkpt lat="48.21043" lon="6.98627">
        <ele>601</ele>
        <time>2021-04-04T16:44:09+02:00</time>
      </trkpt>
      <trkpt lat="48.21042" lon="6.98662">
        <ele>601</ele>
        <time>2021-04-04T16:44:27+02:00</time>
      </trkpt>
      <trkpt lat="48.21045" lon="6.98694">
        <ele>601</ele>
        <time>2021-04-04T16:44:46+02:00</time>
      </trkpt>
      <trkpt lat="48.21047" lon="6.98735">
        <ele>600</ele>
        <time>2021-04-04T16:45:05+02:00</time>
      </trkpt>
      <trkpt lat="48.21056" lon="6.98773">
        <ele>597</ele>
        <time>2021-04-04T16:45:29+02:00</time>
      </trkpt>
      <trkpt lat="48.21068" lon="6.98798">
        <ele>591</ele>
        <time>2021-04-04T16:45:49+02:00</time>
      </trkpt>
      <trkpt lat="48.21079" lon="6.98823">
        <ele>587</ele>
        <time>2021-04-04T16:46:11+02:00</time>
      </trkpt>
      <trkpt lat="48.21092" lon="6.9885">
        <ele>582</ele>
        <time>2021-04-04T16:46:31+02:00</time>
      </trkpt>
      <trkpt lat="48.21114" lon="6.98865">
        <ele>577</ele>
        <time>2021-04-04T16:46:53+02:00</time>
      </trkpt>
      <trkpt lat="48.21137" lon="6.98883">
        <ele>571</ele>
        <time>2021-04-04T16:47:16+02:00</time>
      </trkpt>
      <trkpt lat="48.21161" lon="6.98894">
        <ele>567</ele>
        <time>2021-04-04T16:47:43+02:00</time>
      </trkpt>
      <trkpt lat="48.21186" lon="6.98905">
        <ele>563</ele>
        <time>2021-04-04T16:48:05+02:00</time>
      </trkpt>
      <trkpt lat="48.2122" lon="6.98916">
        <ele>557</ele>
        <time>2021-04-04T16:48:28+02:00</time>
      </trkpt>
      <trkpt lat="48.21242" lon="6.98902">
        <ele>553</ele>
        <time>2021-04-04T16:48:59+02:00</time>
      </trkpt>
      <trkpt lat="48.21261" lon="6.98897">
        <ele>549</ele>
        <time>2021-04-04T16:50:07+02:00</time>
      </trkpt>
      <trkpt lat="48.21285" lon="6.98885">
        <ele>543</ele>
        <time>2021-04-04T16:50:36+02:00</time>
      </trkpt>
      <trkpt lat="48.21311" lon="6.9887">
        <ele>537</ele>
        <time>2021-04-04T16:51:13+02:00</time>
      </trkpt>
      <trkpt lat="48.21334" lon="6.98849">
        <ele>530</ele>
        <time>2021-04-04T16:51:43+02:00</time>
      </trkpt>
      <trkpt lat="48.21359" lon="6.98835">
        <ele>522</ele>
        <time>2021-04-04T16:52:03+02:00</time>
      </trkpt>
      <trkpt lat="48.21382" lon="6.98816">
        <ele>514</ele>
        <time>2021-04-04T16:52:36+02:00</time>
      </trkpt>
      <trkpt lat="48.21407" lon="6.98805">
        <ele>507</ele>
        <time>2021-04-04T16:53:13+02:00</time>
      </trkpt>
      <trkpt lat="48.21432" lon="6.98783">
        <ele>501</ele>
        <time>2021-04-04T16:53:43+02:00</time>
      </trkpt>
      <trkpt lat="48.21454" lon="6.98761">
        <ele>496</ele>
        <time>2021-04-04T16:54:10+02:00</time>
      </trkpt>
      <trkpt lat="48.21474" lon="6.98743">
        <ele>493</ele>
        <time>2021-04-04T16:54:41+02:00</time>
      </trkpt>
      <trkpt lat="48.21499" lon="6.98727">
        <ele>489</ele>
        <time>2021-04-04T16:55:03+02:00</time>
      </trkpt>
      <trkpt lat="48.21525" lon="6.98706">
        <ele>486</ele>
        <time>2021-04-04T16:55:31+02:00</time>
      </trkpt>
      <trkpt lat="48.21558" lon="6.98694">
        <ele>482</ele>
        <time>2021-04-04T16:56:03+02:00</time>
      </trkpt>
      <trkpt lat="48.21583" lon="6.98674">
        <ele>479</ele>
        <time>2021-04-04T16:56:25+02:00</time>
      </trkpt>
      <trkpt lat="48.21605" lon="6.98651">
        <ele>473</ele>
        <time>2021-04-04T16:56:45+02:00</time>
      </trkpt>
      <trkpt lat="48.21631" lon="6.98653">
        <ele>468</ele>
        <time>2021-04-04T16:57:06+02:00</time>
      </trkpt>
      <trkpt lat="48.21656" lon="6.98656">
        <ele>463</ele>
        <time>2021-04-04T16:57:26+02:00</time>
      </trkpt>
      <trkpt lat="48.21673" lon="6.9868">
        <ele>458</ele>
        <time>2021-04-04T16:57:51+02:00</time>
      </trkpt>
      <trkpt lat="48.21695" lon="6.98699">
        <ele>453</ele>
        <time>2021-04-04T16:58:17+02:00</time>
      </trkpt>
      <trkpt lat="48.21724" lon="6.98728">
        <ele>444</ele>
        <time>2021-04-04T16:58:51+02:00</time>
      </trkpt>
      <trkpt lat="48.21732" lon="6.98742">
        <ele>441</ele>
        <time>2021-04-04T16:59:52+02:00</time>
      </trkpt>
      <trkpt lat="48.21754" lon="6.98761">
        <ele>436</ele>
        <time>2021-04-04T17:00:19+02:00</time>
      </trkpt>
      <trkpt lat="48.21781" lon="6.98772">
        <ele>433</ele>
        <time>2021-04-04T17:00:45+02:00</time>
      </trkpt>
      <trkpt lat="48.21802" lon="6.9876">
        <ele>431</ele>
        <time>2021-04-04T17:01:11+02:00</time>
      </trkpt>
      <trkpt lat="48.21812" lon="6.98759">
        <ele>430</ele>
        <time>2021-04-04T17:01:44+02:00</time>
      </trkpt>
      <trkpt lat="48.2183" lon="6.98744">
        <ele>428</ele>
        <time>2021-04-04T17:02:03+02:00</time>
      </trkpt>
      <trkpt lat="48.2185" lon="6.9873">
        <ele>426</ele>
        <time>2021-04-04T17:02:22+02:00</time>
      </trkpt>
      <trkpt lat="48.21866" lon="6.98742">
        <ele>424</ele>
        <time>2021-04-04T17:02:40+02:00</time>
      </trkpt>
      <trkpt lat="48.21873" lon="6.98769">
        <ele>423</ele>
        <time>2021-04-04T17:02:57+02:00</time>
      </trkpt>
      <trkpt lat="48.21878" lon="6.98799">
        <ele>423</ele>
        <time>2021-04-04T17:03:14+02:00</time>
      </trkpt>
      <trkpt lat="48.21882" lon="6.98831">
        <ele>423</ele>
        <time>2021-04-04T17:03:32+02:00</time>
      </trkpt>
      <trkpt lat="48.21886" lon="6.98865">
        <ele>423</ele>
        <time>2021-04-04T17:03:49+02:00</time>
      </trkpt>
      <trkpt lat="48.21896" lon="6.98893">
        <ele>421</ele>
        <time>2021-04-04T17:04:07+02:00</time>
      </trkpt>
      <trkpt lat="48.21904" lon="6.98921">
        <ele>420</ele>
        <time>2021-04-04T17:04:26+02:00</time>
      </trkpt>
      <trkpt lat="48.21926" lon="6.98924">
        <ele>417</ele>
        <time>2021-04-04T17:04:43+02:00</time>
      </trkpt>
      <trkpt lat="48.21947" lon="6.98924">
        <ele>415</ele>
        <time>2021-04-04T17:04:58+02:00</time>
      </trkpt>
      <trkpt lat="48.21966" lon="6.98927">
        <ele>414</ele>
        <time>2021-04-04T17:05:13+02:00</time>
      </trkpt>
      <trkpt lat="48.21987" lon="6.98923">
        <ele>412</ele>
        <time>2021-04-04T17:05:31+02:00</time>
      </trkpt>
      <trkpt lat="48.22007" lon="6.98918">
        <ele>411</ele>
        <time>2021-04-04T17:05:49+02:00</time>
      </trkpt>
      <trkpt lat="48.22025" lon="6.98918">
        <ele>411</ele>
        <time>2021-04-04T17:06:15+02:00</time>
      </trkpt>
      <trkpt lat="48.2203" lon="6.98944">
        <ele>411</ele>
        <time>2021-04-04T17:06:41+02:00</time>
      </trkpt>
      <trkpt lat="48.22031" lon="6.98975">
        <ele>412</ele>
        <time>2021-04-04T17:06:59+02:00</time>
      </trkpt>
      <trkpt lat="48.2203" lon="6.99005">
        <ele>412</ele>
        <time>2021-04-04T17:07:14+02:00</time>
      </trkpt>
      <trkpt lat="48.22027" lon="6.99036">
        <ele>412</ele>
        <time>2021-04-04T17:07:29+02:00</time>
      </trkpt>
      <trkpt lat="48.22027" lon="6.99064">
        <ele>412</ele>
        <time>2021-04-04T17:07:45+02:00</time>
      </trkpt>
      <trkpt lat="48.22026" lon="6.99093">
        <ele>412</ele>
        <time>2021-04-04T17:08:00+02:00</time>
      </trkpt>
      <trkpt lat="48.22024" lon="6.99123">
        <ele>413</ele>
        <time>2021-04-04T17:08:14+02:00</time>
      </trkpt>
      <trkpt lat="48.22021" lon="6.99151">
        <ele>413</ele>
        <time>2021-04-04T17:08:28+02:00</time>
      </trkpt>
      <trkpt lat="48.22019" lon="6.9918">
        <ele>414</ele>
        <time>2021-04-04T17:08:42+02:00</time>
      </trkpt>
      <trkpt lat="48.22031" lon="6.992">
        <ele>414</ele>
        <time>2021-04-04T17:08:59+02:00</time>
      </trkpt>
      <trkpt lat="48.22049" lon="6.99194">
        <ele>414</ele>
        <time>2021-04-04T17:09:14+02:00</time>
      </trkpt>
      <trkpt lat="48.22068" lon="6.99182">
        <ele>413</ele>
        <time>2021-04-04T17:09:31+02:00</time>
      </trkpt>
      <trkpt lat="48.22084" lon="6.99168">
        <ele>413</ele>
        <time>2021-04-04T17:09:48+02:00</time>
      </trkpt>
      <trkpt lat="48.22093" lon="6.99155">
        <ele>413</ele>
        <time>2021-04-04T17:10:46+02:00</time>
      </trkpt>
    </trkseg>
  </trk>
</gpx>